AIC127 VIDP-LOWW
Flight info
| Callsign | AIC127 |
|---|---|
| Flight time | 9h 13m |
| Altitude | 32000 |
| Route | DUDUM6H DUDUM Q2 NIKOT R462 UUD W58 AAE L639 RITPO/N0502F340 L639 RASKI N881 KIPOL L444 TOLDA M628 TULBU G652 TOKRA DCT ALROK DCT BOSOB DCT ITRUX Y511 PMA/N0491F360 Z712 WEJ L677 CVO L617 TANSA DCT KUPIS DCT ESOPO DCT EVIVI/N0476F380 L863 OKANA DCT ESIRI DCT PARAK DCT BALUX DCT TORNO DCT NATEX NATEX2W |
| Aircraft | B77W/H-SDE1E2E3FGHIJ2J3J4J5M1RWXY/LB1D1 |
Departure
| Time | 2026-05-05 13:56 |
|---|---|
| Airport | Indira Gandhi International Airport (VIDP) |
Arrival
| Time | 2026-05-05 23:10 |
|---|---|
| Airport | Vienna International Airport (LOWW) |
| Time | Latitude | Longitude | Altitude | Speed | Heading |
|---|---|---|---|---|---|
| 2026-05-05 12:22 | 28.55136 | 77.08289 | 756 ft | 0 kts | 326° |
| 2026-05-05 13:45 | 28.55126 | 77.08296 | 750 ft | 4 kts | 320° |
| 2026-05-05 13:45 | 28.55109 | 77.08318 | 750 ft | 4 kts | 297° |
| 2026-05-05 13:45 | 28.55100 | 77.08346 | 750 ft | 4 kts | 274° |
| 2026-05-05 13:46 | 28.55102 | 77.08377 | 750 ft | 4 kts | 255° |
| 2026-05-05 13:46 | 28.55111 | 77.08405 | 750 ft | 4 kts | 243° |
| 2026-05-05 13:46 | 28.55124 | 77.08432 | 750 ft | 4 kts | 236° |
| 2026-05-05 13:46 | 28.55128 | 77.08439 | 750 ft | 0 kts | 236° |
| 2026-05-05 13:50 | 28.55128 | 77.08437 | 750 ft | 1 kts | 236° |
| 2026-05-05 13:50 | 28.55108 | 77.08405 | 750 ft | 8 kts | 236° |
| 2026-05-05 13:50 | 28.55058 | 77.08340 | 752 ft | 12 kts | 212° |
| 2026-05-05 13:50 | 28.54980 | 77.08307 | 754 ft | 12 kts | 202° |
| 2026-05-05 13:51 | 28.54936 | 77.08233 | 752 ft | 12 kts | 270° |
| 2026-05-05 13:51 | 28.54953 | 77.08138 | 755 ft | 12 kts | 283° |
| 2026-05-05 13:51 | 28.54973 | 77.08044 | 752 ft | 12 kts | 283° |
| 2026-05-05 13:51 | 28.54994 | 77.07950 | 753 ft | 12 kts | 285° |
| 2026-05-05 13:52 | 28.55017 | 77.07857 | 753 ft | 12 kts | 285° |
| 2026-05-05 13:52 | 28.55040 | 77.07764 | 753 ft | 12 kts | 285° |
| 2026-05-05 13:52 | 28.55062 | 77.07670 | 754 ft | 12 kts | 283° |
| 2026-05-05 13:52 | 28.55082 | 77.07575 | 753 ft | 13 kts | 283° |
| 2026-05-05 13:53 | 28.55113 | 77.07435 | 754 ft | 24 kts | 286° |
| 2026-05-05 13:53 | 28.55157 | 77.07261 | 752 ft | 18 kts | 284° |
| 2026-05-05 13:53 | 28.55188 | 77.07125 | 751 ft | 18 kts | 284° |
| 2026-05-05 13:53 | 28.55196 | 77.06993 | 751 ft | 13 kts | 242° |
| 2026-05-05 13:54 | 28.55113 | 77.06954 | 750 ft | 14 kts | 186° |
| 2026-05-05 13:54 | 28.55020 | 77.06934 | 750 ft | 14 kts | 193° |
| 2026-05-05 13:54 | 28.54928 | 77.06908 | 752 ft | 14 kts | 194° |
| 2026-05-05 13:54 | 28.54836 | 77.06882 | 751 ft | 14 kts | 194° |
| 2026-05-05 13:55 | 28.54744 | 77.06858 | 754 ft | 14 kts | 191° |
| 2026-05-05 13:55 | 28.54657 | 77.06883 | 751 ft | 14 kts | 133° |
| 2026-05-05 13:55 | 28.54624 | 77.06986 | 752 ft | 18 kts | 104° |
| 2026-05-05 13:55 | 28.54556 | 77.07302 | 753 ft | 81 kts | 104° |
| 2026-05-05 13:56 | 28.54351 | 77.08275 | 753 ft | 170 kts | 104° |
| 2026-05-05 13:56 | 28.54024 | 77.09782 | 1145 ft | 212 kts | 103° |
| 2026-05-05 13:56 | 28.53646 | 77.11438 | 2210 ft | 219 kts | 104° |
| 2026-05-05 13:56 | 28.52953 | 77.13053 | 2953 ft | 241 kts | 130° |
| 2026-05-05 13:57 | 28.51504 | 77.14069 | 3363 ft | 254 kts | 167° |
| 2026-05-05 13:57 | 28.49725 | 77.14038 | 3890 ft | 261 kts | 192° |
| 2026-05-05 13:57 | 28.47920 | 77.13574 | 4480 ft | 270 kts | 194° |
| 2026-05-05 13:57 | 28.46068 | 77.13074 | 5164 ft | 276 kts | 194° |
| 2026-05-05 13:58 | 28.44186 | 77.12566 | 5926 ft | 280 kts | 195° |
| 2026-05-05 13:58 | 28.42281 | 77.12058 | 6637 ft | 284 kts | 195° |
| 2026-05-05 13:58 | 28.40352 | 77.11550 | 6894 ft | 287 kts | 195° |
| 2026-05-05 13:58 | 28.39030 | 77.11206 | 6862 ft | 288 kts | 195° |
| 2026-05-05 13:59 | 28.35136 | 77.10204 | 6860 ft | 286 kts | 195° |
| 2026-05-05 13:59 | 28.33195 | 77.09706 | 6844 ft | 286 kts | 195° |
| 2026-05-05 14:00 | 28.29915 | 77.07590 | 7192 ft | 276 kts | 229° |
| 2026-05-05 14:00 | 28.28551 | 77.06041 | 7792 ft | 283 kts | 227° |
| 2026-05-05 14:00 | 28.27128 | 77.04459 | 8504 ft | 286 kts | 228° |
| 2026-05-05 14:00 | 28.25721 | 77.02897 | 9253 ft | 288 kts | 228° |
| 2026-05-05 14:01 | 28.24287 | 77.01304 | 9984 ft | 290 kts | 228° |
| 2026-05-05 14:01 | 28.22844 | 76.99698 | 10415 ft | 305 kts | 228° |
| 2026-05-05 14:01 | 28.21273 | 76.97943 | 10565 ft | 329 kts | 228° |
| 2026-05-05 14:01 | 28.19585 | 76.96059 | 10766 ft | 352 kts | 228° |
| 2026-05-05 14:02 | 28.17786 | 76.94055 | 11051 ft | 371 kts | 227° |
| 2026-05-05 14:02 | 28.15917 | 76.91981 | 11603 ft | 380 kts | 227° |
| 2026-05-05 14:02 | 28.14009 | 76.89867 | 12289 ft | 386 kts | 227° |
| 2026-05-05 14:02 | 28.12080 | 76.87732 | 13069 ft | 389 kts | 227° |
| 2026-05-05 14:03 | 28.10134 | 76.85578 | 13746 ft | 395 kts | 227° |
| 2026-05-05 14:03 | 28.08155 | 76.83386 | 14334 ft | 401 kts | 227° |
| 2026-05-05 14:03 | 28.06153 | 76.81169 | 15003 ft | 404 kts | 227° |
| 2026-05-05 14:03 | 28.04139 | 76.78940 | 15721 ft | 406 kts | 227° |
| 2026-05-05 14:04 | 28.02112 | 76.76696 | 16402 ft | 409 kts | 227° |
| 2026-05-05 14:04 | 28.00066 | 76.74432 | 17063 ft | 413 kts | 227° |
| 2026-05-05 14:04 | 27.97999 | 76.72147 | 17706 ft | 417 kts | 227° |
| 2026-05-05 14:04 | 27.95914 | 76.69844 | 18334 ft | 421 kts | 227° |
| 2026-05-05 14:05 | 27.93812 | 76.67523 | 18926 ft | 424 kts | 227° |
| 2026-05-05 14:05 | 27.91697 | 76.65189 | 19500 ft | 426 kts | 226° |
| 2026-05-05 14:05 | 27.89568 | 76.62841 | 20088 ft | 429 kts | 226° |
| 2026-05-05 14:05 | 27.87425 | 76.60478 | 20681 ft | 432 kts | 226° |
| 2026-05-05 14:06 | 27.85269 | 76.58101 | 21270 ft | 435 kts | 226° |
| 2026-05-05 14:06 | 27.83095 | 76.55707 | 21817 ft | 438 kts | 226° |
| 2026-05-05 14:06 | 27.80907 | 76.53299 | 22372 ft | 441 kts | 226° |
| 2026-05-05 14:06 | 27.78615 | 76.50986 | 22887 ft | 445 kts | 220° |
| 2026-05-05 14:07 | 27.76071 | 76.48947 | 23306 ft | 452 kts | 216° |
| 2026-05-05 14:07 | 27.73404 | 76.47029 | 23698 ft | 457 kts | 214° |
| 2026-05-05 14:07 | 27.70699 | 76.45124 | 24148 ft | 459 kts | 214° |
| 2026-05-05 14:07 | 27.68000 | 76.43186 | 24609 ft | 461 kts | 216° |
| 2026-05-05 14:08 | 27.65308 | 76.41205 | 25047 ft | 463 kts | 216° |
| 2026-05-05 14:08 | 27.62616 | 76.39186 | 25444 ft | 466 kts | 217° |
| 2026-05-05 14:08 | 27.59956 | 76.37170 | 25804 ft | 469 kts | 217° |
| 2026-05-05 14:08 | 27.57231 | 76.35114 | 26202 ft | 472 kts | 217° |
| 2026-05-05 14:09 | 27.54492 | 76.33053 | 26604 ft | 475 kts | 217° |
| 2026-05-05 14:09 | 27.51736 | 76.30980 | 27008 ft | 478 kts | 217° |
| 2026-05-05 14:09 | 27.48925 | 76.28958 | 27372 ft | 481 kts | 215° |
| 2026-05-05 14:09 | 27.46057 | 76.26989 | 27713 ft | 485 kts | 214° |
| 2026-05-05 14:10 | 27.43155 | 76.25033 | 28035 ft | 488 kts | 214° |
| 2026-05-05 14:10 | 27.40238 | 76.23072 | 28398 ft | 490 kts | 214° |
| 2026-05-05 14:10 | 27.37310 | 76.21093 | 28724 ft | 492 kts | 215° |
| 2026-05-05 14:10 | 27.34380 | 76.19099 | 29079 ft | 493 kts | 215° |
| 2026-05-05 14:11 | 27.31445 | 76.17093 | 29365 ft | 495 kts | 216° |
| 2026-05-05 14:11 | 27.28493 | 76.15071 | 29611 ft | 498 kts | 216° |
| 2026-05-05 14:11 | 27.25532 | 76.13044 | 29984 ft | 498 kts | 216° |
| 2026-05-05 14:11 | 27.22586 | 76.11029 | 30391 ft | 495 kts | 216° |
| 2026-05-05 14:12 | 27.19644 | 76.09018 | 30710 ft | 495 kts | 216° |
| 2026-05-05 14:12 | 27.16700 | 76.07006 | 30983 ft | 495 kts | 216° |
| 2026-05-05 14:12 | 27.13760 | 76.04999 | 31296 ft | 494 kts | 217° |
| 2026-05-05 14:12 | 27.10825 | 76.02997 | 31640 ft | 493 kts | 217° |
| 2026-05-05 14:13 | 27.07891 | 76.00996 | 31756 ft | 496 kts | 217° |
| 2026-05-05 14:13 | 27.05004 | 75.99027 | 31790 ft | 497 kts | 217° |
| 2026-05-05 14:13 | 26.99127 | 75.95029 | 31832 ft | 491 kts | 217° |
| 2026-05-05 14:14 | 26.93299 | 75.91066 | 31880 ft | 489 kts | 217° |
| 2026-05-05 14:14 | 26.87475 | 75.87108 | 31882 ft | 489 kts | 217° |
| 2026-05-05 14:15 | 26.81539 | 75.83339 | 31880 ft | 495 kts | 211° |
| 2026-05-05 14:15 | 26.75124 | 75.80525 | 31868 ft | 500 kts | 206° |
| 2026-05-05 14:16 | 26.68596 | 75.77832 | 31825 ft | 501 kts | 206° |
| 2026-05-05 14:16 | 26.62022 | 75.75082 | 31833 ft | 502 kts | 206° |
| 2026-05-05 14:17 | 26.55527 | 75.72337 | 31842 ft | 503 kts | 206° |
| 2026-05-05 14:17 | 26.48977 | 75.69565 | 31839 ft | 504 kts | 206° |
| 2026-05-05 14:18 | 26.42420 | 75.66796 | 31819 ft | 504 kts | 206° |
| 2026-05-05 14:18 | 26.35863 | 75.64033 | 31843 ft | 504 kts | 206° |
| 2026-05-05 14:19 | 26.29308 | 75.61274 | 31840 ft | 503 kts | 206° |
| 2026-05-05 14:19 | 26.22759 | 75.58521 | 31843 ft | 503 kts | 206° |
| 2026-05-05 14:20 | 26.16216 | 75.55773 | 31830 ft | 503 kts | 206° |
| 2026-05-05 14:20 | 26.09675 | 75.53029 | 31829 ft | 502 kts | 206° |
| 2026-05-05 14:21 | 26.03141 | 75.50291 | 31835 ft | 502 kts | 206° |
| 2026-05-05 14:21 | 25.96608 | 75.47556 | 31853 ft | 502 kts | 206° |
| 2026-05-05 14:22 | 25.90212 | 75.44530 | 31833 ft | 494 kts | 217° |
| 2026-05-05 14:22 | 25.84795 | 75.40016 | 31834 ft | 483 kts | 230° |
| 2026-05-05 14:23 | 25.80327 | 75.34526 | 31836 ft | 479 kts | 234° |
| 2026-05-05 14:23 | 25.75917 | 75.28960 | 31846 ft | 481 kts | 234° |
| 2026-05-05 14:24 | 25.71463 | 75.23407 | 31862 ft | 483 kts | 233° |
| 2026-05-05 14:24 | 25.66976 | 75.17863 | 31862 ft | 483 kts | 233° |
| 2026-05-05 14:25 | 25.62480 | 75.12325 | 31866 ft | 483 kts | 233° |
| 2026-05-05 14:25 | 25.58016 | 75.06830 | 31871 ft | 483 kts | 233° |
| 2026-05-05 14:26 | 25.53529 | 75.01311 | 31872 ft | 482 kts | 233° |
| 2026-05-05 14:26 | 25.49092 | 74.95857 | 31878 ft | 482 kts | 233° |
| 2026-05-05 14:27 | 25.44605 | 74.90351 | 31887 ft | 481 kts | 233° |
| 2026-05-05 14:27 | 25.40117 | 74.84849 | 31885 ft | 482 kts | 233° |
| 2026-05-05 14:28 | 25.35621 | 74.79343 | 31888 ft | 482 kts | 233° |
| 2026-05-05 14:28 | 25.31119 | 74.73838 | 31892 ft | 483 kts | 233° |
| 2026-05-05 14:29 | 25.26615 | 74.68336 | 31896 ft | 483 kts | 233° |
| 2026-05-05 14:29 | 25.22106 | 74.62835 | 31905 ft | 483 kts | 233° |
| 2026-05-05 14:30 | 25.17595 | 74.57335 | 31910 ft | 483 kts | 233° |
| 2026-05-05 14:30 | 25.13080 | 74.51840 | 31909 ft | 483 kts | 233° |
| 2026-05-05 14:31 | 25.08567 | 74.46349 | 31903 ft | 483 kts | 233° |
| 2026-05-05 14:31 | 25.04048 | 74.40851 | 31923 ft | 484 kts | 233° |
| 2026-05-05 14:32 | 24.99524 | 74.35353 | 31915 ft | 485 kts | 233° |
| 2026-05-05 14:32 | 24.94987 | 74.29847 | 31928 ft | 485 kts | 233° |
| 2026-05-05 14:33 | 24.90445 | 74.24341 | 31930 ft | 486 kts | 233° |
| 2026-05-05 14:33 | 24.85923 | 74.18866 | 31935 ft | 486 kts | 233° |
| 2026-05-05 14:34 | 24.81339 | 74.13323 | 31929 ft | 486 kts | 233° |
| 2026-05-05 14:34 | 24.76783 | 74.07819 | 31916 ft | 486 kts | 233° |
| 2026-05-05 14:35 | 24.72231 | 74.02328 | 31974 ft | 485 kts | 233° |
| 2026-05-05 14:35 | 24.67773 | 73.96953 | 31983 ft | 485 kts | 233° |
| 2026-05-05 14:36 | 24.63223 | 73.91484 | 31997 ft | 485 kts | 232° |
| 2026-05-05 14:36 | 24.58123 | 73.86525 | 31936 ft | 495 kts | 222° |
| 2026-05-05 14:37 | 24.52541 | 73.82093 | 31942 ft | 496 kts | 222° |
| 2026-05-05 14:37 | 24.46964 | 73.77632 | 31930 ft | 496 kts | 223° |
| 2026-05-05 14:38 | 24.41409 | 73.73137 | 31932 ft | 496 kts | 223° |
| 2026-05-05 14:38 | 24.35848 | 73.68640 | 31925 ft | 497 kts | 223° |
| 2026-05-05 14:39 | 24.30321 | 73.64100 | 31906 ft | 496 kts | 223° |
| 2026-05-05 14:39 | 24.24830 | 73.59527 | 31912 ft | 496 kts | 223° |
| 2026-05-05 14:40 | 24.19337 | 73.54960 | 31916 ft | 495 kts | 223° |
| 2026-05-05 14:40 | 24.13843 | 73.50410 | 31911 ft | 495 kts | 223° |
| 2026-05-05 14:41 | 24.08345 | 73.45866 | 31888 ft | 495 kts | 223° |
| 2026-05-05 14:41 | 24.02854 | 73.41334 | 31891 ft | 495 kts | 223° |
| 2026-05-05 14:42 | 23.97361 | 73.36806 | 31891 ft | 495 kts | 223° |
| 2026-05-05 14:42 | 23.91897 | 73.32305 | 31875 ft | 495 kts | 223° |
| 2026-05-05 14:43 | 23.86395 | 73.27777 | 31874 ft | 495 kts | 223° |
| 2026-05-05 14:43 | 23.80892 | 73.23254 | 31864 ft | 495 kts | 223° |
| 2026-05-05 14:44 | 23.75385 | 73.18732 | 31823 ft | 495 kts | 223° |
| 2026-05-05 14:44 | 23.69882 | 73.14220 | 31821 ft | 494 kts | 223° |
| 2026-05-05 14:45 | 23.64384 | 73.09716 | 31844 ft | 494 kts | 223° |
| 2026-05-05 14:45 | 23.58882 | 73.05213 | 31813 ft | 494 kts | 223° |
| 2026-05-05 14:46 | 23.53380 | 73.00714 | 31800 ft | 494 kts | 223° |
| 2026-05-05 14:46 | 23.47944 | 72.96274 | 31816 ft | 494 kts | 223° |
| 2026-05-05 14:47 | 23.42439 | 72.91783 | 31775 ft | 495 kts | 222° |
| 2026-05-05 14:47 | 23.37861 | 72.88052 | 31779 ft | 494 kts | 222° |
| 2026-05-05 14:48 | 23.32351 | 72.83566 | 31786 ft | 494 kts | 222° |
| 2026-05-05 14:48 | 23.26842 | 72.79085 | 31773 ft | 495 kts | 222° |
| 2026-05-05 14:49 | 23.21330 | 72.74605 | 31773 ft | 495 kts | 222° |
| 2026-05-05 14:49 | 23.15813 | 72.70126 | 31778 ft | 495 kts | 222° |
| 2026-05-05 14:50 | 23.10358 | 72.65592 | 31760 ft | 488 kts | 229° |
| 2026-05-05 14:50 | 23.08215 | 72.62806 | 31758 ft | 477 kts | 242° |
| 2026-05-05 14:50 | 23.06707 | 72.59632 | 31764 ft | 472 kts | 252° |
| 2026-05-05 14:51 | 23.05801 | 72.56236 | 31764 ft | 465 kts | 264° |
| 2026-05-05 14:51 | 23.05359 | 72.52765 | 31784 ft | 466 kts | 265° |
| 2026-05-05 14:51 | 23.04461 | 72.45750 | 31784 ft | 472 kts | 264° |
| 2026-05-05 14:52 | 23.03498 | 72.38664 | 31774 ft | 476 kts | 264° |
| 2026-05-05 14:52 | 23.02497 | 72.31545 | 31767 ft | 477 kts | 264° |
| 2026-05-05 14:53 | 23.01487 | 72.24446 | 31748 ft | 475 kts | 264° |
| 2026-05-05 14:53 | 23.00480 | 72.17381 | 31755 ft | 472 kts | 264° |
| 2026-05-05 14:54 | 22.99477 | 72.10351 | 31763 ft | 471 kts | 264° |
| 2026-05-05 14:54 | 22.98474 | 72.03340 | 31766 ft | 470 kts | 264° |
| 2026-05-05 14:55 | 22.97480 | 71.96411 | 31764 ft | 470 kts | 264° |
| 2026-05-05 14:55 | 22.96470 | 71.89398 | 31759 ft | 471 kts | 264° |
| 2026-05-05 14:56 | 22.95456 | 71.82377 | 31775 ft | 472 kts | 264° |
| 2026-05-05 14:56 | 22.94436 | 71.75337 | 31770 ft | 473 kts | 264° |
| 2026-05-05 14:57 | 22.93410 | 71.68279 | 31771 ft | 474 kts | 264° |
| 2026-05-05 14:57 | 22.92379 | 71.61214 | 31774 ft | 474 kts | 264° |
| 2026-05-05 14:58 | 22.91345 | 71.54146 | 31770 ft | 475 kts | 264° |
| 2026-05-05 14:58 | 22.90308 | 71.47079 | 31781 ft | 475 kts | 264° |
| 2026-05-05 14:59 | 22.89267 | 71.40009 | 31784 ft | 475 kts | 264° |
| 2026-05-05 14:59 | 22.88222 | 71.32937 | 31783 ft | 475 kts | 264° |
| 2026-05-05 15:00 | 22.87351 | 71.27056 | 31786 ft | 475 kts | 264° |
| 2026-05-05 15:00 | 22.86124 | 71.18796 | 31785 ft | 475 kts | 264° |
| 2026-05-05 15:01 | 22.85071 | 71.11736 | 31793 ft | 474 kts | 263° |
| 2026-05-05 15:01 | 22.84016 | 71.04681 | 31802 ft | 474 kts | 263° |
| 2026-05-05 15:02 | 22.82969 | 70.97701 | 31807 ft | 474 kts | 263° |
| 2026-05-05 15:02 | 22.81910 | 70.90655 | 32012 ft | 472 kts | 263° |
| 2026-05-05 15:03 | 22.81384 | 70.87160 | 32328 ft | 468 kts | 264° |
| 2026-05-05 15:03 | 22.81036 | 70.83671 | 32620 ft | 464 kts | 269° |
| 2026-05-05 15:03 | 22.80954 | 70.80197 | 32932 ft | 459 kts | 274° |
| 2026-05-05 15:03 | 22.81155 | 70.76757 | 33237 ft | 456 kts | 276° |
| 2026-05-05 15:04 | 22.81394 | 70.73344 | 33560 ft | 453 kts | 276° |
| 2026-05-05 15:04 | 22.81630 | 70.69944 | 33748 ft | 454 kts | 275° |
| 2026-05-05 15:04 | 22.82089 | 70.63074 | 33809 ft | 460 kts | 275° |
| 2026-05-05 15:05 | 22.82752 | 70.52628 | 33821 ft | 470 kts | 275° |
| 2026-05-05 15:06 | 22.83193 | 70.45542 | 33835 ft | 471 kts | 275° |
| 2026-05-05 15:06 | 22.83629 | 70.38479 | 33814 ft | 463 kts | 275° |
| 2026-05-05 15:07 | 22.84054 | 70.31570 | 33826 ft | 462 kts | 275° |
| 2026-05-05 15:07 | 22.84482 | 70.24575 | 33821 ft | 462 kts | 275° |
| 2026-05-05 15:08 | 22.84901 | 70.17665 | 33820 ft | 463 kts | 275° |
| 2026-05-05 15:08 | 22.85322 | 70.10689 | 33820 ft | 464 kts | 275° |
| 2026-05-05 15:09 | 22.85740 | 70.03697 | 33813 ft | 465 kts | 275° |
| 2026-05-05 15:09 | 22.86151 | 69.96766 | 33816 ft | 466 kts | 275° |
| 2026-05-05 15:10 | 22.86565 | 69.89744 | 33827 ft | 467 kts | 275° |
| 2026-05-05 15:10 | 22.86976 | 69.82714 | 33824 ft | 467 kts | 275° |
| 2026-05-05 15:11 | 22.87384 | 69.75687 | 33830 ft | 467 kts | 275° |
| 2026-05-05 15:11 | 22.87792 | 69.68661 | 33825 ft | 467 kts | 275° |
| 2026-05-05 15:12 | 22.88241 | 69.61639 | 33836 ft | 466 kts | 275° |
| 2026-05-05 15:12 | 22.88704 | 69.54627 | 33838 ft | 466 kts | 275° |
| 2026-05-05 15:13 | 22.89160 | 69.47613 | 33829 ft | 466 kts | 275° |
| 2026-05-05 15:13 | 22.89608 | 69.40600 | 33841 ft | 466 kts | 275° |
| 2026-05-05 15:14 | 22.90051 | 69.33585 | 33836 ft | 466 kts | 275° |
| 2026-05-05 15:14 | 22.90492 | 69.26562 | 33836 ft | 467 kts | 275° |
| 2026-05-05 15:15 | 22.90930 | 69.19536 | 33833 ft | 467 kts | 275° |
| 2026-05-05 15:15 | 22.91365 | 69.12507 | 33835 ft | 467 kts | 275° |
| 2026-05-05 15:16 | 22.91798 | 69.05476 | 33842 ft | 467 kts | 275° |
| 2026-05-05 15:16 | 22.92223 | 68.98516 | 33838 ft | 468 kts | 275° |
| 2026-05-05 15:17 | 22.92650 | 68.91476 | 33836 ft | 468 kts | 275° |
| 2026-05-05 15:17 | 22.93072 | 68.84442 | 33831 ft | 467 kts | 275° |
| 2026-05-05 15:18 | 22.93491 | 68.77428 | 33841 ft | 465 kts | 275° |
| 2026-05-05 15:18 | 22.93906 | 68.70438 | 33836 ft | 464 kts | 275° |
| 2026-05-05 15:19 | 22.94316 | 68.63460 | 33835 ft | 463 kts | 275° |
| 2026-05-05 15:19 | 22.94723 | 68.56495 | 33846 ft | 463 kts | 275° |
| 2026-05-05 15:20 | 22.95127 | 68.49529 | 33840 ft | 463 kts | 275° |
| 2026-05-05 15:20 | 22.95529 | 68.42556 | 33842 ft | 463 kts | 275° |
| 2026-05-05 15:21 | 22.95841 | 68.35617 | 33840 ft | 464 kts | 272° |
| 2026-05-05 15:21 | 22.95848 | 68.28606 | 33848 ft | 465 kts | 272° |
| 2026-05-05 15:22 | 22.95825 | 68.21578 | 33840 ft | 466 kts | 272° |
| 2026-05-05 15:22 | 22.95817 | 68.14545 | 33838 ft | 466 kts | 272° |
| 2026-05-05 15:23 | 22.95817 | 68.07509 | 33844 ft | 467 kts | 272° |
| 2026-05-05 15:23 | 22.95815 | 68.00465 | 33846 ft | 467 kts | 272° |
| 2026-05-05 15:24 | 22.95809 | 67.93512 | 33838 ft | 467 kts | 272° |
| 2026-05-05 15:24 | 22.95799 | 67.86471 | 33838 ft | 466 kts | 272° |
| 2026-05-05 15:25 | 22.95811 | 67.79438 | 33844 ft | 466 kts | 272° |
| 2026-05-05 15:25 | 22.95831 | 67.72408 | 33844 ft | 466 kts | 272° |
| 2026-05-05 15:26 | 22.95846 | 67.65381 | 33844 ft | 466 kts | 272° |
| 2026-05-05 15:26 | 22.95856 | 67.58356 | 33842 ft | 465 kts | 272° |
| 2026-05-05 15:27 | 22.95861 | 67.51334 | 33841 ft | 466 kts | 272° |
| 2026-05-05 15:27 | 22.95864 | 67.44310 | 33845 ft | 466 kts | 272° |
| 2026-05-05 15:28 | 22.95863 | 67.37279 | 33841 ft | 466 kts | 272° |
| 2026-05-05 15:28 | 22.95860 | 67.30246 | 33845 ft | 466 kts | 272° |
| 2026-05-05 15:29 | 22.95853 | 67.23210 | 33844 ft | 467 kts | 272° |
| 2026-05-05 15:29 | 22.95844 | 67.16170 | 33845 ft | 467 kts | 272° |
| 2026-05-05 15:30 | 22.95831 | 67.09127 | 33843 ft | 467 kts | 272° |
| 2026-05-05 15:30 | 22.95815 | 67.02087 | 33852 ft | 466 kts | 272° |
| 2026-05-05 15:31 | 22.95799 | 66.95138 | 33839 ft | 465 kts | 272° |
| 2026-05-05 15:31 | 22.95832 | 66.88124 | 33831 ft | 464 kts | 272° |
| 2026-05-05 15:32 | 22.95884 | 66.81172 | 33838 ft | 464 kts | 272° |
| 2026-05-05 15:32 | 22.95930 | 66.74181 | 33840 ft | 463 kts | 272° |
| 2026-05-05 15:33 | 22.95967 | 66.67191 | 33837 ft | 464 kts | 272° |
| 2026-05-05 15:33 | 22.96000 | 66.60193 | 33840 ft | 464 kts | 272° |
| 2026-05-05 15:34 | 22.96029 | 66.53186 | 33840 ft | 465 kts | 272° |
| 2026-05-05 15:34 | 22.96051 | 66.47310 | 33843 ft | 465 kts | 272° |
| 2026-05-05 15:35 | 22.96075 | 66.40284 | 33840 ft | 466 kts | 272° |
| 2026-05-05 15:35 | 22.96099 | 66.32110 | 33840 ft | 466 kts | 272° |
| 2026-05-05 15:36 | 22.96113 | 66.26261 | 33844 ft | 467 kts | 272° |
| 2026-05-05 15:36 | 22.96128 | 66.19220 | 33840 ft | 467 kts | 272° |
| 2026-05-05 15:37 | 22.96139 | 66.12175 | 33837 ft | 467 kts | 272° |
| 2026-05-05 15:37 | 22.96147 | 66.05133 | 33842 ft | 467 kts | 272° |
| 2026-05-05 15:38 | 22.96152 | 65.98183 | 33840 ft | 467 kts | 272° |
| 2026-05-05 15:38 | 22.96155 | 65.91143 | 33836 ft | 466 kts | 272° |
| 2026-05-05 15:39 | 22.96154 | 65.84107 | 33842 ft | 466 kts | 272° |
| 2026-05-05 15:39 | 22.96149 | 65.77070 | 33838 ft | 467 kts | 272° |
| 2026-05-05 15:40 | 22.96142 | 65.70032 | 33835 ft | 466 kts | 272° |
| 2026-05-05 15:40 | 22.96132 | 65.62992 | 33839 ft | 466 kts | 272° |
| 2026-05-05 15:41 | 22.96119 | 65.55954 | 33840 ft | 467 kts | 272° |
| 2026-05-05 15:41 | 22.96102 | 65.48915 | 33839 ft | 467 kts | 272° |
| 2026-05-05 15:42 | 22.96083 | 65.41871 | 33838 ft | 467 kts | 272° |
| 2026-05-05 15:42 | 22.96060 | 65.34825 | 33840 ft | 467 kts | 272° |
| 2026-05-05 15:43 | 22.96034 | 65.27777 | 33835 ft | 467 kts | 272° |
| 2026-05-05 15:43 | 22.96005 | 65.20773 | 33843 ft | 467 kts | 271° |
| 2026-05-05 15:44 | 22.95973 | 65.13718 | 33849 ft | 468 kts | 271° |
| 2026-05-05 15:44 | 22.95938 | 65.06661 | 33838 ft | 468 kts | 271° |
| 2026-05-05 15:45 | 22.95900 | 64.99689 | 33834 ft | 467 kts | 271° |
| 2026-05-05 15:45 | 22.95859 | 64.92645 | 33836 ft | 467 kts | 271° |
| 2026-05-05 15:46 | 22.95816 | 64.85610 | 33839 ft | 466 kts | 271° |
| 2026-05-05 15:46 | 22.96233 | 64.78614 | 33839 ft | 464 kts | 278° |
| 2026-05-05 15:47 | 22.97007 | 64.71660 | 33844 ft | 465 kts | 278° |
| 2026-05-05 15:47 | 22.97768 | 64.64696 | 33842 ft | 465 kts | 278° |
| 2026-05-05 15:48 | 22.98509 | 64.57721 | 33840 ft | 465 kts | 278° |
| 2026-05-05 15:48 | 22.99239 | 64.50738 | 33843 ft | 466 kts | 278° |
| 2026-05-05 15:49 | 22.99967 | 64.43752 | 33838 ft | 466 kts | 278° |
| 2026-05-05 15:49 | 23.00692 | 64.36766 | 33841 ft | 466 kts | 278° |
| 2026-05-05 15:50 | 23.01410 | 64.29823 | 33840 ft | 466 kts | 278° |
| 2026-05-05 15:50 | 23.02130 | 64.22830 | 33842 ft | 466 kts | 278° |
| 2026-05-05 15:51 | 23.02847 | 64.15835 | 33839 ft | 466 kts | 278° |
| 2026-05-05 15:51 | 23.03561 | 64.08840 | 33837 ft | 466 kts | 278° |
| 2026-05-05 15:52 | 23.04272 | 64.01842 | 33828 ft | 467 kts | 277° |
| 2026-05-05 15:52 | 23.04972 | 63.94926 | 33840 ft | 467 kts | 277° |
| 2026-05-05 15:53 | 23.05678 | 63.87909 | 33842 ft | 467 kts | 277° |
| 2026-05-05 15:53 | 23.05930 | 63.80851 | 33849 ft | 468 kts | 272° |
| 2026-05-05 15:54 | 23.05980 | 63.73778 | 33836 ft | 469 kts | 272° |
| 2026-05-05 15:54 | 23.06037 | 63.66693 | 33844 ft | 469 kts | 272° |
| 2026-05-05 15:55 | 23.06108 | 63.59601 | 33840 ft | 470 kts | 272° |
| 2026-05-05 15:55 | 23.06182 | 63.52505 | 33845 ft | 470 kts | 272° |
| 2026-05-05 15:56 | 23.06254 | 63.45406 | 33845 ft | 470 kts | 272° |
| 2026-05-05 15:56 | 23.06322 | 63.38303 | 33841 ft | 471 kts | 272° |
| 2026-05-05 15:57 | 23.06387 | 63.31199 | 33840 ft | 471 kts | 272° |
| 2026-05-05 15:57 | 23.06448 | 63.24093 | 33846 ft | 471 kts | 272° |
| 2026-05-05 15:58 | 23.06506 | 63.16989 | 33848 ft | 470 kts | 272° |
| 2026-05-05 15:58 | 23.06561 | 63.09885 | 33838 ft | 471 kts | 272° |
| 2026-05-05 15:59 | 23.06613 | 63.02777 | 33838 ft | 471 kts | 272° |
| 2026-05-05 15:59 | 23.06661 | 62.95743 | 33844 ft | 471 kts | 272° |
| 2026-05-05 16:00 | 23.06706 | 62.88626 | 33841 ft | 471 kts | 272° |
| 2026-05-05 16:00 | 23.06748 | 62.81510 | 33836 ft | 471 kts | 272° |
| 2026-05-05 16:01 | 23.06788 | 62.74389 | 33853 ft | 472 kts | 272° |
| 2026-05-05 16:01 | 23.06823 | 62.67307 | 33846 ft | 472 kts | 272° |
| 2026-05-05 16:02 | 23.06856 | 62.60173 | 33839 ft | 473 kts | 272° |
| 2026-05-05 16:02 | 23.06886 | 62.53036 | 33845 ft | 473 kts | 271° |
| 2026-05-05 16:03 | 23.06912 | 62.45898 | 33843 ft | 473 kts | 271° |
| 2026-05-05 16:03 | 23.06935 | 62.38759 | 33839 ft | 473 kts | 271° |
| 2026-05-05 16:04 | 23.06955 | 62.31622 | 33839 ft | 473 kts | 271° |
| 2026-05-05 16:04 | 23.06972 | 62.24491 | 33837 ft | 472 kts | 271° |
| 2026-05-05 16:05 | 23.06986 | 62.17356 | 33832 ft | 472 kts | 271° |
| 2026-05-05 16:05 | 23.06996 | 62.10225 | 33837 ft | 472 kts | 271° |
| 2026-05-05 16:06 | 23.07004 | 62.03087 | 33834 ft | 473 kts | 271° |
| 2026-05-05 16:06 | 23.07008 | 61.96028 | 33840 ft | 473 kts | 271° |
| 2026-05-05 16:07 | 23.07009 | 61.88887 | 33831 ft | 473 kts | 271° |
| 2026-05-05 16:07 | 23.07006 | 61.81795 | 33837 ft | 473 kts | 271° |
| 2026-05-05 16:08 | 23.07001 | 61.74646 | 33847 ft | 473 kts | 271° |
| 2026-05-05 16:08 | 23.06983 | 61.67497 | 33835 ft | 474 kts | 271° |
| 2026-05-05 16:09 | 23.06952 | 61.60347 | 33832 ft | 474 kts | 271° |
| 2026-05-05 16:09 | 23.06922 | 61.53194 | 33828 ft | 474 kts | 271° |
| 2026-05-05 16:10 | 23.06664 | 61.46051 | 33828 ft | 475 kts | 264° |
| 2026-05-05 16:10 | 23.05708 | 61.38958 | 33828 ft | 475 kts | 263° |
| 2026-05-05 16:11 | 23.04732 | 61.31865 | 33840 ft | 475 kts | 263° |
| 2026-05-05 16:12 | 23.02841 | 61.17659 | 33828 ft | 476 kts | 263° |
| 2026-05-05 16:13 | 23.00476 | 60.99919 | 33827 ft | 476 kts | 263° |
| 2026-05-05 16:13 | 22.99528 | 60.92856 | 33834 ft | 476 kts | 263° |
| 2026-05-05 16:14 | 22.97619 | 60.78631 | 33831 ft | 476 kts | 263° |
| 2026-05-05 16:15 | 22.95701 | 60.64408 | 33833 ft | 477 kts | 263° |
| 2026-05-05 16:16 | 22.93768 | 60.50174 | 33825 ft | 477 kts | 263° |
| 2026-05-05 16:17 | 22.92309 | 60.39496 | 33821 ft | 477 kts | 263° |
| 2026-05-05 16:18 | 22.90849 | 60.28860 | 33820 ft | 478 kts | 263° |
| 2026-05-05 16:19 | 22.89370 | 60.18177 | 33829 ft | 478 kts | 263° |
| 2026-05-05 16:19 | 22.87868 | 60.07499 | 33825 ft | 477 kts | 263° |
| 2026-05-05 16:20 | 22.85872 | 59.93349 | 33802 ft | 477 kts | 263° |
| 2026-05-05 16:22 | 22.83385 | 59.75558 | 33800 ft | 478 kts | 263° |
| 2026-05-05 16:23 | 22.81404 | 59.61315 | 33806 ft | 478 kts | 263° |
| 2026-05-05 16:23 | 22.80075 | 59.51830 | 33814 ft | 478 kts | 263° |
| 2026-05-05 16:24 | 22.79072 | 59.44704 | 33830 ft | 478 kts | 263° |
| 2026-05-05 16:25 | 22.77561 | 59.34011 | 33827 ft | 479 kts | 262° |
| 2026-05-05 16:25 | 22.76026 | 59.23319 | 33837 ft | 479 kts | 262° |
| 2026-05-05 16:26 | 22.73966 | 59.09048 | 33864 ft | 480 kts | 262° |
| 2026-05-05 16:27 | 22.72932 | 59.01908 | 33853 ft | 480 kts | 262° |
| 2026-05-05 16:27 | 22.71908 | 58.94860 | 33864 ft | 480 kts | 262° |
| 2026-05-05 16:28 | 22.70868 | 58.87728 | 33864 ft | 479 kts | 262° |
| 2026-05-05 16:28 | 22.69826 | 58.80598 | 33864 ft | 479 kts | 262° |
| 2026-05-05 16:29 | 22.68782 | 58.73477 | 33860 ft | 479 kts | 262° |
| 2026-05-05 16:29 | 22.67745 | 58.66361 | 33854 ft | 478 kts | 264° |
| 2026-05-05 16:30 | 22.67712 | 58.59202 | 33861 ft | 476 kts | 276° |
| 2026-05-05 16:30 | 22.69012 | 58.52198 | 33861 ft | 475 kts | 286° |
| 2026-05-05 16:31 | 22.70870 | 58.45334 | 33858 ft | 475 kts | 286° |
| 2026-05-05 16:31 | 22.72707 | 58.38533 | 33857 ft | 476 kts | 286° |
| 2026-05-05 16:32 | 22.74527 | 58.31640 | 33858 ft | 476 kts | 286° |
| 2026-05-05 16:32 | 22.76328 | 58.24736 | 33859 ft | 476 kts | 285° |
| 2026-05-05 16:33 | 22.78126 | 58.17828 | 33860 ft | 476 kts | 285° |
| 2026-05-05 16:33 | 22.79921 | 58.10922 | 33851 ft | 476 kts | 285° |
| 2026-05-05 16:34 | 22.81701 | 58.04068 | 33853 ft | 475 kts | 285° |
| 2026-05-05 16:34 | 22.83468 | 57.97249 | 33850 ft | 475 kts | 285° |
| 2026-05-05 16:35 | 22.85250 | 57.90357 | 33853 ft | 475 kts | 285° |
| 2026-05-05 16:35 | 22.87029 | 57.83466 | 33857 ft | 475 kts | 285° |
| 2026-05-05 16:36 | 22.88807 | 57.76565 | 33867 ft | 475 kts | 285° |
| 2026-05-05 16:36 | 22.90545 | 57.69646 | 33879 ft | 476 kts | 285° |
| 2026-05-05 16:37 | 22.92250 | 57.62709 | 33873 ft | 476 kts | 284° |
| 2026-05-05 16:37 | 22.93961 | 57.55763 | 33892 ft | 477 kts | 284° |
| 2026-05-05 16:38 | 22.95674 | 57.48815 | 33890 ft | 477 kts | 284° |
| 2026-05-05 16:38 | 22.97386 | 57.41859 | 33898 ft | 477 kts | 284° |
| 2026-05-05 16:39 | 22.98973 | 57.34878 | 33874 ft | 475 kts | 276° |
| 2026-05-05 16:39 | 22.99005 | 57.31304 | 33905 ft | 475 kts | 264° |
| 2026-05-05 16:39 | 22.98424 | 57.27776 | 33909 ft | 476 kts | 255° |
| 2026-05-05 16:40 | 22.97260 | 57.24415 | 33888 ft | 477 kts | 244° |
| 2026-05-05 16:40 | 22.95714 | 57.21231 | 33882 ft | 478 kts | 243° |
| 2026-05-05 16:40 | 22.92550 | 57.14869 | 33869 ft | 480 kts | 243° |
| 2026-05-05 16:41 | 22.89436 | 57.08443 | 33867 ft | 482 kts | 244° |
| 2026-05-05 16:41 | 22.86354 | 57.01980 | 33854 ft | 483 kts | 244° |
| 2026-05-05 16:42 | 22.83305 | 56.95593 | 33858 ft | 482 kts | 244° |
| 2026-05-05 16:42 | 22.80217 | 56.89141 | 33839 ft | 482 kts | 244° |
| 2026-05-05 16:43 | 22.77156 | 56.82749 | 33826 ft | 481 kts | 244° |
| 2026-05-05 16:43 | 22.74080 | 56.76329 | 33815 ft | 480 kts | 244° |
| 2026-05-05 16:44 | 22.71007 | 56.69922 | 33802 ft | 479 kts | 244° |
| 2026-05-05 16:44 | 22.67936 | 56.63530 | 33803 ft | 478 kts | 244° |
| 2026-05-05 16:45 | 22.64865 | 56.57143 | 33785 ft | 478 kts | 244° |
| 2026-05-05 16:45 | 22.61791 | 56.50759 | 33782 ft | 478 kts | 244° |
| 2026-05-05 16:46 | 22.58714 | 56.44376 | 33791 ft | 479 kts | 244° |
| 2026-05-05 16:46 | 22.55629 | 56.37985 | 33780 ft | 479 kts | 244° |
| 2026-05-05 16:47 | 22.52534 | 56.31594 | 33778 ft | 480 kts | 244° |
| 2026-05-05 16:47 | 22.49432 | 56.25206 | 33773 ft | 480 kts | 244° |
| 2026-05-05 16:48 | 22.46327 | 56.18816 | 33775 ft | 480 kts | 244° |
| 2026-05-05 16:48 | 22.43223 | 56.12432 | 33775 ft | 480 kts | 243° |
| 2026-05-05 16:49 | 22.40118 | 56.06053 | 33770 ft | 479 kts | 243° |
| 2026-05-05 16:49 | 22.37044 | 55.99751 | 33769 ft | 479 kts | 243° |
| 2026-05-05 16:50 | 22.33918 | 55.93390 | 33769 ft | 479 kts | 243° |
| 2026-05-05 16:50 | 22.30792 | 55.87039 | 33764 ft | 479 kts | 243° |
| 2026-05-05 16:51 | 22.27666 | 55.80687 | 33762 ft | 479 kts | 243° |
| 2026-05-05 16:51 | 22.24539 | 55.74341 | 33760 ft | 479 kts | 243° |
| 2026-05-05 16:52 | 22.21415 | 55.67994 | 33761 ft | 479 kts | 243° |
| 2026-05-05 16:52 | 22.18295 | 55.61650 | 33762 ft | 478 kts | 244° |
| 2026-05-05 16:53 | 22.15997 | 55.54951 | 33765 ft | 476 kts | 256° |
| 2026-05-05 16:53 | 22.14899 | 55.47924 | 33762 ft | 475 kts | 265° |
| 2026-05-05 16:54 | 22.14354 | 55.40822 | 33761 ft | 475 kts | 265° |
| 2026-05-05 16:54 | 22.13821 | 55.33712 | 33762 ft | 476 kts | 265° |
| 2026-05-05 16:55 | 22.13253 | 55.26602 | 33762 ft | 476 kts | 265° |
| 2026-05-05 16:55 | 22.12665 | 55.19492 | 33761 ft | 476 kts | 265° |
| 2026-05-05 16:56 | 22.12068 | 55.12383 | 33765 ft | 476 kts | 265° |
| 2026-05-05 16:56 | 22.11470 | 55.05278 | 33764 ft | 476 kts | 265° |
| 2026-05-05 16:57 | 22.10876 | 54.98251 | 33759 ft | 476 kts | 265° |
| 2026-05-05 16:57 | 22.10274 | 54.91149 | 33762 ft | 476 kts | 265° |
| 2026-05-05 16:58 | 22.09668 | 54.84049 | 33766 ft | 475 kts | 265° |
| 2026-05-05 16:58 | 22.09060 | 54.76953 | 33769 ft | 475 kts | 265° |
| 2026-05-05 16:59 | 22.08449 | 54.69856 | 33764 ft | 475 kts | 264° |
| 2026-05-05 16:59 | 22.07834 | 54.62761 | 33765 ft | 475 kts | 264° |
| 2026-05-05 17:00 | 22.07221 | 54.55717 | 33765 ft | 475 kts | 264° |
| 2026-05-05 17:00 | 22.06601 | 54.48630 | 33769 ft | 475 kts | 264° |
| 2026-05-05 17:01 | 22.05978 | 54.41544 | 33763 ft | 475 kts | 264° |
| 2026-05-05 17:01 | 22.05352 | 54.34458 | 33760 ft | 475 kts | 264° |
| 2026-05-05 17:02 | 22.04723 | 54.27377 | 33763 ft | 475 kts | 264° |
| 2026-05-05 17:02 | 22.04091 | 54.20294 | 33763 ft | 475 kts | 264° |
| 2026-05-05 17:03 | 22.03455 | 54.13208 | 33761 ft | 475 kts | 264° |
| 2026-05-05 17:03 | 22.02817 | 54.06123 | 33763 ft | 475 kts | 264° |
| 2026-05-05 17:04 | 22.02183 | 53.99113 | 33769 ft | 475 kts | 264° |
| 2026-05-05 17:04 | 22.01538 | 53.92026 | 33765 ft | 475 kts | 264° |
| 2026-05-05 17:05 | 22.00891 | 53.84946 | 33759 ft | 475 kts | 264° |
| 2026-05-05 17:05 | 22.00241 | 53.77874 | 33765 ft | 474 kts | 264° |
| 2026-05-05 17:06 | 21.99589 | 53.70804 | 33765 ft | 474 kts | 264° |
| 2026-05-05 17:06 | 21.98934 | 53.63740 | 33763 ft | 474 kts | 264° |
| 2026-05-05 17:07 | 21.98279 | 53.56720 | 33761 ft | 474 kts | 264° |
| 2026-05-05 17:07 | 21.97619 | 53.49661 | 33762 ft | 474 kts | 264° |
| 2026-05-05 17:08 | 21.96955 | 53.42600 | 33764 ft | 474 kts | 264° |
| 2026-05-05 17:08 | 21.96288 | 53.35542 | 33765 ft | 474 kts | 264° |
| 2026-05-05 17:09 | 21.95618 | 53.28484 | 33765 ft | 474 kts | 264° |
| 2026-05-05 17:09 | 21.94944 | 53.21415 | 33768 ft | 474 kts | 264° |
| 2026-05-05 17:10 | 21.94268 | 53.14354 | 33765 ft | 474 kts | 263° |
| 2026-05-05 17:10 | 21.93587 | 53.07281 | 33764 ft | 474 kts | 263° |
| 2026-05-05 17:11 | 21.93021 | 53.01414 | 33766 ft | 474 kts | 263° |
| 2026-05-05 17:11 | 21.92343 | 52.94424 | 33766 ft | 474 kts | 263° |
| 2026-05-05 17:12 | 21.91655 | 52.87362 | 33765 ft | 474 kts | 263° |
| 2026-05-05 17:12 | 21.90965 | 52.80304 | 33767 ft | 474 kts | 263° |
| 2026-05-05 17:13 | 21.90378 | 52.73237 | 33765 ft | 474 kts | 268° |
| 2026-05-05 17:13 | 21.90764 | 52.66149 | 33770 ft | 475 kts | 277° |
| 2026-05-05 17:14 | 21.92013 | 52.59153 | 33773 ft | 476 kts | 280° |
| 2026-05-05 17:14 | 21.93346 | 52.52166 | 33776 ft | 476 kts | 280° |
| 2026-05-05 17:15 | 21.94658 | 52.45173 | 33774 ft | 476 kts | 279° |
| 2026-05-05 17:15 | 21.95946 | 52.38173 | 33771 ft | 476 kts | 279° |
| 2026-05-05 17:16 | 21.97215 | 52.31221 | 33774 ft | 476 kts | 279° |
| 2026-05-05 17:16 | 21.98488 | 52.24224 | 33770 ft | 476 kts | 279° |
| 2026-05-05 17:17 | 21.99767 | 52.17181 | 33773 ft | 476 kts | 279° |
| 2026-05-05 17:17 | 22.01035 | 52.10184 | 33776 ft | 476 kts | 279° |
| 2026-05-05 17:18 | 22.02291 | 52.03238 | 33780 ft | 476 kts | 279° |
| 2026-05-05 17:18 | 22.03537 | 51.96328 | 33777 ft | 476 kts | 279° |
| 2026-05-05 17:19 | 22.04796 | 51.89331 | 33774 ft | 476 kts | 279° |
| 2026-05-05 17:19 | 22.06052 | 51.82328 | 33771 ft | 476 kts | 279° |
| 2026-05-05 17:20 | 22.07305 | 51.75330 | 33779 ft | 475 kts | 279° |
| 2026-05-05 17:20 | 22.08555 | 51.68329 | 33781 ft | 476 kts | 279° |
| 2026-05-05 17:21 | 22.09802 | 51.61326 | 33781 ft | 476 kts | 279° |
| 2026-05-05 17:22 | 22.11667 | 51.50815 | 33780 ft | 476 kts | 279° |
| 2026-05-05 17:22 | 22.12908 | 51.43802 | 33787 ft | 476 kts | 279° |
| 2026-05-05 17:23 | 22.14146 | 51.36784 | 33784 ft | 476 kts | 279° |
| 2026-05-05 17:23 | 22.15382 | 51.29765 | 33784 ft | 476 kts | 279° |
| 2026-05-05 17:24 | 22.16614 | 51.22742 | 33775 ft | 476 kts | 279° |
| 2026-05-05 17:24 | 22.17844 | 51.15719 | 33779 ft | 476 kts | 279° |
| 2026-05-05 17:25 | 22.19071 | 51.08693 | 33782 ft | 476 kts | 279° |
| 2026-05-05 17:25 | 22.20287 | 51.01714 | 33790 ft | 477 kts | 279° |
| 2026-05-05 17:26 | 22.21495 | 50.94758 | 33792 ft | 477 kts | 279° |
| 2026-05-05 17:26 | 22.22713 | 50.87727 | 33790 ft | 477 kts | 279° |
| 2026-05-05 17:27 | 22.23929 | 50.80691 | 33783 ft | 477 kts | 278° |
| 2026-05-05 17:27 | 22.25142 | 50.73650 | 33787 ft | 477 kts | 278° |
| 2026-05-05 17:28 | 22.26352 | 50.66609 | 33783 ft | 477 kts | 278° |
| 2026-05-05 17:28 | 22.27560 | 50.59564 | 33782 ft | 477 kts | 278° |
| 2026-05-05 17:29 | 22.28765 | 50.52514 | 33784 ft | 477 kts | 278° |
| 2026-05-05 17:29 | 22.29967 | 50.45465 | 33783 ft | 477 kts | 278° |
| 2026-05-05 17:30 | 22.31166 | 50.38412 | 33780 ft | 477 kts | 278° |
| 2026-05-05 17:30 | 22.32362 | 50.31362 | 33804 ft | 477 kts | 278° |
| 2026-05-05 17:31 | 22.33554 | 50.24312 | 33782 ft | 477 kts | 278° |
| 2026-05-05 17:31 | 22.34742 | 50.17269 | 33773 ft | 476 kts | 278° |
| 2026-05-05 17:32 | 22.35925 | 50.10235 | 33778 ft | 476 kts | 278° |
| 2026-05-05 17:32 | 22.37104 | 50.03207 | 33776 ft | 476 kts | 278° |
| 2026-05-05 17:33 | 22.38258 | 49.96307 | 33776 ft | 476 kts | 278° |
| 2026-05-05 17:33 | 22.39440 | 49.89218 | 33782 ft | 477 kts | 278° |
| 2026-05-05 17:34 | 22.40606 | 49.82210 | 33783 ft | 477 kts | 278° |
| 2026-05-05 17:34 | 22.41778 | 49.75144 | 33779 ft | 478 kts | 278° |
| 2026-05-05 17:35 | 22.42949 | 49.68063 | 33779 ft | 479 kts | 278° |
| 2026-05-05 17:35 | 22.44118 | 49.60979 | 33772 ft | 479 kts | 278° |
| 2026-05-05 17:36 | 22.45284 | 49.53891 | 33770 ft | 479 kts | 278° |
| 2026-05-05 17:36 | 22.46446 | 49.46808 | 33773 ft | 478 kts | 278° |
| 2026-05-05 17:37 | 22.47604 | 49.39728 | 33770 ft | 478 kts | 278° |
| 2026-05-05 17:37 | 22.48758 | 49.32657 | 33771 ft | 477 kts | 278° |
| 2026-05-05 17:38 | 22.49907 | 49.25593 | 33779 ft | 477 kts | 277° |
| 2026-05-05 17:38 | 22.51051 | 49.18534 | 33772 ft | 476 kts | 278° |
| 2026-05-05 17:39 | 22.52183 | 49.11535 | 33768 ft | 475 kts | 277° |
| 2026-05-05 17:39 | 22.53318 | 49.04497 | 33767 ft | 475 kts | 277° |
| 2026-05-05 17:40 | 22.54436 | 48.97545 | 33770 ft | 474 kts | 277° |
| 2026-05-05 17:40 | 22.55564 | 48.90512 | 33771 ft | 475 kts | 277° |
| 2026-05-05 17:41 | 22.56689 | 48.83474 | 33772 ft | 475 kts | 277° |
| 2026-05-05 17:41 | 22.57812 | 48.76427 | 33773 ft | 475 kts | 277° |
| 2026-05-05 17:42 | 22.58933 | 48.69377 | 33784 ft | 475 kts | 277° |
| 2026-05-05 17:42 | 22.60049 | 48.62336 | 33772 ft | 474 kts | 277° |
| 2026-05-05 17:43 | 22.61160 | 48.55305 | 33776 ft | 473 kts | 277° |
| 2026-05-05 17:43 | 22.62266 | 48.48292 | 33773 ft | 472 kts | 277° |
| 2026-05-05 17:44 | 22.63366 | 48.41284 | 33776 ft | 472 kts | 277° |
| 2026-05-05 17:44 | 22.64464 | 48.34276 | 33780 ft | 473 kts | 277° |
| 2026-05-05 17:45 | 22.65560 | 48.27256 | 33777 ft | 473 kts | 277° |
| 2026-05-05 17:45 | 22.66648 | 48.20271 | 33791 ft | 474 kts | 277° |
| 2026-05-05 17:46 | 22.67740 | 48.13237 | 33787 ft | 474 kts | 277° |
| 2026-05-05 17:46 | 22.68830 | 48.06204 | 33776 ft | 473 kts | 277° |
| 2026-05-05 17:47 | 22.69641 | 47.99233 | 33789 ft | 470 kts | 272° |
| 2026-05-05 17:47 | 22.70206 | 47.92182 | 33781 ft | 470 kts | 272° |
| 2026-05-05 17:48 | 22.70763 | 47.85138 | 33788 ft | 469 kts | 272° |
| 2026-05-05 17:48 | 22.71336 | 47.78099 | 33797 ft | 469 kts | 272° |
| 2026-05-05 17:49 | 22.71915 | 47.71063 | 33798 ft | 469 kts | 272° |
| 2026-05-05 17:49 | 22.72491 | 47.64034 | 33800 ft | 468 kts | 272° |
| 2026-05-05 17:50 | 22.73062 | 47.57015 | 33804 ft | 467 kts | 272° |
| 2026-05-05 17:50 | 22.73628 | 47.50010 | 33810 ft | 466 kts | 272° |
| 2026-05-05 17:51 | 22.74190 | 47.43023 | 33810 ft | 465 kts | 272° |
| 2026-05-05 17:51 | 22.74748 | 47.36047 | 33812 ft | 464 kts | 272° |
| 2026-05-05 17:52 | 22.75302 | 47.29080 | 33823 ft | 464 kts | 272° |
| 2026-05-05 17:52 | 22.75853 | 47.22110 | 33820 ft | 464 kts | 272° |
| 2026-05-05 17:53 | 22.76403 | 47.15138 | 33831 ft | 465 kts | 272° |
| 2026-05-05 17:53 | 22.76962 | 47.08158 | 33826 ft | 465 kts | 272° |
| 2026-05-05 17:54 | 22.77521 | 47.01171 | 33841 ft | 465 kts | 272° |
| 2026-05-05 17:54 | 22.78069 | 46.94265 | 33844 ft | 464 kts | 272° |
| 2026-05-05 17:55 | 22.78618 | 46.87301 | 33830 ft | 463 kts | 272° |
| 2026-05-05 17:55 | 22.79161 | 46.80360 | 33853 ft | 462 kts | 272° |
| 2026-05-05 17:56 | 22.79701 | 46.73436 | 33839 ft | 461 kts | 272° |
| 2026-05-05 17:56 | 22.80236 | 46.66523 | 33857 ft | 460 kts | 272° |
| 2026-05-05 17:57 | 22.80768 | 46.59613 | 33849 ft | 460 kts | 272° |
| 2026-05-05 17:57 | 22.81298 | 46.52695 | 33865 ft | 461 kts | 272° |
| 2026-05-05 17:58 | 22.81825 | 46.45775 | 33876 ft | 461 kts | 272° |
| 2026-05-05 17:58 | 22.82349 | 46.38856 | 33871 ft | 460 kts | 272° |
| 2026-05-05 17:59 | 22.82863 | 46.31949 | 33871 ft | 459 kts | 271° |
| 2026-05-05 17:59 | 22.83369 | 46.25055 | 33869 ft | 459 kts | 271° |
| 2026-05-05 18:00 | 22.83873 | 46.18167 | 33869 ft | 458 kts | 271° |
| 2026-05-05 18:00 | 22.84290 | 46.12445 | 33863 ft | 458 kts | 271° |
| 2026-05-05 18:01 | 22.84870 | 46.04444 | 33863 ft | 458 kts | 271° |
| 2026-05-05 18:01 | 22.85361 | 45.97630 | 33862 ft | 458 kts | 271° |
| 2026-05-05 18:02 | 22.85854 | 45.90740 | 33866 ft | 458 kts | 271° |
| 2026-05-05 18:02 | 22.86264 | 45.84974 | 33857 ft | 458 kts | 271° |
| 2026-05-05 18:03 | 22.86751 | 45.78095 | 33856 ft | 457 kts | 271° |
| 2026-05-05 18:03 | 22.87234 | 45.71225 | 33857 ft | 457 kts | 271° |
| 2026-05-05 18:04 | 22.87713 | 45.64364 | 33860 ft | 456 kts | 271° |
| 2026-05-05 18:04 | 22.88186 | 45.57552 | 33857 ft | 456 kts | 271° |
| 2026-05-05 18:05 | 22.88659 | 45.50698 | 33860 ft | 456 kts | 271° |
| 2026-05-05 18:05 | 22.89130 | 45.43845 | 33863 ft | 456 kts | 271° |
| 2026-05-05 18:06 | 22.89596 | 45.36993 | 33887 ft | 456 kts | 271° |
| 2026-05-05 18:06 | 22.90061 | 45.30142 | 33873 ft | 455 kts | 271° |
| 2026-05-05 18:07 | 22.90521 | 45.23307 | 33864 ft | 454 kts | 271° |
| 2026-05-05 18:07 | 22.90976 | 45.16492 | 33862 ft | 453 kts | 271° |
| 2026-05-05 18:08 | 22.91429 | 45.09688 | 33872 ft | 452 kts | 271° |
| 2026-05-05 18:08 | 22.91878 | 45.02885 | 33874 ft | 452 kts | 270° |
| 2026-05-05 18:09 | 22.92321 | 44.96150 | 33877 ft | 453 kts | 271° |
| 2026-05-05 18:09 | 22.92768 | 44.89318 | 33872 ft | 455 kts | 271° |
| 2026-05-05 18:10 | 22.93212 | 44.82468 | 33879 ft | 456 kts | 271° |
| 2026-05-05 18:10 | 22.93656 | 44.75603 | 33874 ft | 457 kts | 271° |
| 2026-05-05 18:11 | 22.94227 | 44.68734 | 33879 ft | 459 kts | 275° |
| 2026-05-05 18:11 | 22.95711 | 44.61975 | 33876 ft | 464 kts | 284° |
| 2026-05-05 18:12 | 22.97786 | 44.55351 | 33879 ft | 463 kts | 284° |
| 2026-05-05 18:12 | 22.99866 | 44.48737 | 33878 ft | 463 kts | 284° |
| 2026-05-05 18:13 | 23.01917 | 44.42131 | 33891 ft | 462 kts | 284° |
| 2026-05-05 18:13 | 23.03952 | 44.35523 | 33887 ft | 461 kts | 284° |
| 2026-05-05 18:14 | 23.05979 | 44.28922 | 33885 ft | 460 kts | 284° |
| 2026-05-05 18:14 | 23.08000 | 44.22332 | 33894 ft | 460 kts | 284° |
| 2026-05-05 18:15 | 23.10016 | 44.15750 | 33880 ft | 459 kts | 284° |
| 2026-05-05 18:15 | 23.12011 | 44.09227 | 33894 ft | 457 kts | 283° |
| 2026-05-05 18:16 | 23.14013 | 44.02670 | 33910 ft | 457 kts | 283° |
| 2026-05-05 18:16 | 23.15982 | 43.96207 | 33898 ft | 456 kts | 283° |
| 2026-05-05 18:17 | 23.17971 | 43.89672 | 33905 ft | 455 kts | 283° |
| 2026-05-05 18:17 | 23.19954 | 43.83141 | 33906 ft | 455 kts | 283° |
| 2026-05-05 18:18 | 23.21934 | 43.76611 | 33917 ft | 455 kts | 283° |
| 2026-05-05 18:18 | 23.23912 | 43.70078 | 33924 ft | 455 kts | 283° |
| 2026-05-05 18:19 | 23.25888 | 43.63540 | 33928 ft | 455 kts | 283° |
| 2026-05-05 18:19 | 23.27861 | 43.57004 | 33937 ft | 455 kts | 283° |
| 2026-05-05 18:20 | 23.29827 | 43.50468 | 33939 ft | 454 kts | 283° |
| 2026-05-05 18:20 | 23.31786 | 43.43941 | 33943 ft | 454 kts | 283° |
| 2026-05-05 18:21 | 23.33741 | 43.37416 | 33958 ft | 453 kts | 283° |
| 2026-05-05 18:21 | 23.35693 | 43.30892 | 33960 ft | 453 kts | 283° |
| 2026-05-05 18:22 | 23.37640 | 43.24372 | 33960 ft | 453 kts | 283° |
| 2026-05-05 18:22 | 23.39583 | 43.17854 | 33970 ft | 453 kts | 283° |
| 2026-05-05 18:23 | 23.41522 | 43.11336 | 33971 ft | 452 kts | 283° |
| 2026-05-05 18:23 | 23.43448 | 43.04819 | 33982 ft | 452 kts | 282° |
| 2026-05-05 18:24 | 23.45349 | 42.98371 | 33982 ft | 452 kts | 282° |
| 2026-05-05 18:24 | 23.47268 | 42.91855 | 33978 ft | 452 kts | 282° |
| 2026-05-05 18:25 | 23.49171 | 42.85386 | 33979 ft | 451 kts | 282° |
| 2026-05-05 18:25 | 23.51082 | 42.78878 | 33977 ft | 451 kts | 282° |
| 2026-05-05 18:26 | 23.52992 | 42.72373 | 33979 ft | 451 kts | 283° |
| 2026-05-05 18:26 | 23.54914 | 42.65870 | 33978 ft | 451 kts | 283° |
| 2026-05-05 18:27 | 23.56834 | 42.59366 | 33983 ft | 451 kts | 282° |
| 2026-05-05 18:27 | 23.58747 | 42.52869 | 33966 ft | 450 kts | 282° |
| 2026-05-05 18:28 | 23.61606 | 42.43134 | 33971 ft | 449 kts | 282° |
| 2026-05-05 18:28 | 23.63505 | 42.36650 | 33975 ft | 448 kts | 282° |
| 2026-05-05 18:29 | 23.65400 | 42.30175 | 33966 ft | 448 kts | 282° |
| 2026-05-05 18:29 | 23.67277 | 42.23708 | 33970 ft | 447 kts | 282° |
| 2026-05-05 18:30 | 23.69137 | 42.17239 | 33983 ft | 447 kts | 282° |
| 2026-05-05 18:30 | 23.70996 | 42.10766 | 33974 ft | 447 kts | 282° |
| 2026-05-05 18:31 | 23.72844 | 42.04333 | 33971 ft | 447 kts | 282° |
| 2026-05-05 18:31 | 23.74681 | 41.97927 | 33985 ft | 447 kts | 281° |
| 2026-05-05 18:32 | 23.76562 | 41.91452 | 33974 ft | 448 kts | 282° |
| 2026-05-05 18:32 | 23.78447 | 41.84977 | 33976 ft | 448 kts | 282° |
| 2026-05-05 18:33 | 23.80338 | 41.78455 | 33973 ft | 448 kts | 281° |
| 2026-05-05 18:33 | 23.82207 | 41.71973 | 33971 ft | 448 kts | 281° |
| 2026-05-05 18:34 | 23.84068 | 41.65487 | 33982 ft | 447 kts | 281° |
| 2026-05-05 18:34 | 23.85914 | 41.59049 | 33976 ft | 447 kts | 281° |
| 2026-05-05 18:35 | 23.87768 | 41.52569 | 33982 ft | 447 kts | 281° |
| 2026-05-05 18:35 | 23.89615 | 41.46093 | 33974 ft | 446 kts | 281° |
| 2026-05-05 18:36 | 23.91458 | 41.39621 | 33969 ft | 446 kts | 281° |
| 2026-05-05 18:36 | 23.93296 | 41.33155 | 33996 ft | 445 kts | 281° |
| 2026-05-05 18:37 | 23.95131 | 41.26688 | 33975 ft | 445 kts | 281° |
| 2026-05-05 18:37 | 23.96959 | 41.20229 | 33969 ft | 444 kts | 281° |
| 2026-05-05 18:38 | 23.98782 | 41.13779 | 33973 ft | 444 kts | 281° |
| 2026-05-05 18:38 | 24.00597 | 41.07343 | 33978 ft | 443 kts | 281° |
| 2026-05-05 18:39 | 24.02409 | 41.00909 | 33971 ft | 443 kts | 281° |
| 2026-05-05 18:39 | 24.04197 | 40.94547 | 33963 ft | 442 kts | 281° |
| 2026-05-05 18:40 | 24.06000 | 40.88117 | 33972 ft | 442 kts | 281° |
| 2026-05-05 18:40 | 24.07797 | 40.81692 | 33962 ft | 442 kts | 281° |
| 2026-05-05 18:41 | 24.09592 | 40.75265 | 33967 ft | 442 kts | 281° |
| 2026-05-05 18:41 | 24.11384 | 40.68837 | 33962 ft | 441 kts | 281° |
| 2026-05-05 18:42 | 24.13173 | 40.62407 | 33959 ft | 442 kts | 281° |
| 2026-05-05 18:42 | 24.14961 | 40.55971 | 33954 ft | 442 kts | 281° |
| 2026-05-05 18:43 | 24.17074 | 40.49612 | 33955 ft | 449 kts | 288° |
| 2026-05-05 18:43 | 24.19982 | 40.43508 | 33965 ft | 453 kts | 290° |
| 2026-05-05 18:44 | 24.22931 | 40.37417 | 33954 ft | 452 kts | 290° |
| 2026-05-05 18:44 | 24.25859 | 40.31318 | 33955 ft | 452 kts | 290° |
| 2026-05-05 18:45 | 24.28751 | 40.25256 | 33971 ft | 451 kts | 290° |
| 2026-05-05 18:45 | 24.31654 | 40.19162 | 33961 ft | 451 kts | 290° |
| 2026-05-05 18:46 | 24.34552 | 40.13070 | 33957 ft | 450 kts | 290° |
| 2026-05-05 18:46 | 24.37442 | 40.06988 | 33940 ft | 449 kts | 290° |
| 2026-05-05 18:47 | 24.40328 | 40.00907 | 33956 ft | 449 kts | 290° |
| 2026-05-05 18:47 | 24.43175 | 39.94898 | 33951 ft | 449 kts | 290° |
| 2026-05-05 18:48 | 24.46051 | 39.88825 | 33962 ft | 448 kts | 290° |
| 2026-05-05 18:48 | 24.48925 | 39.82744 | 33986 ft | 449 kts | 290° |
| 2026-05-05 18:49 | 24.51801 | 39.76651 | 33976 ft | 450 kts | 289° |
| 2026-05-05 18:49 | 24.55387 | 39.70906 | 33975 ft | 466 kts | 303° |
| 2026-05-05 18:50 | 24.59274 | 39.66719 | 33965 ft | 479 kts | 313° |
| 2026-05-05 18:50 | 24.64727 | 39.62342 | 33959 ft | 483 kts | 315° |
| 2026-05-05 18:51 | 24.70211 | 39.58077 | 33962 ft | 482 kts | 315° |
| 2026-05-05 18:51 | 24.75637 | 39.53805 | 33968 ft | 483 kts | 315° |
| 2026-05-05 18:52 | 24.81082 | 39.49456 | 33960 ft | 484 kts | 315° |
| 2026-05-05 18:52 | 24.86532 | 39.45086 | 33972 ft | 485 kts | 314° |
| 2026-05-05 18:53 | 24.91979 | 39.40716 | 33959 ft | 484 kts | 314° |
| 2026-05-05 18:53 | 24.97412 | 39.36357 | 33952 ft | 483 kts | 314° |
| 2026-05-05 18:54 | 25.02828 | 39.32007 | 33973 ft | 482 kts | 314° |
| 2026-05-05 18:54 | 25.08236 | 39.27658 | 33968 ft | 481 kts | 314° |
| 2026-05-05 18:55 | 25.13637 | 39.23307 | 33964 ft | 480 kts | 314° |
| 2026-05-05 18:55 | 25.18984 | 39.18917 | 33981 ft | 475 kts | 310° |
| 2026-05-05 18:56 | 25.23525 | 39.13805 | 33976 ft | 461 kts | 300° |
| 2026-05-05 18:56 | 25.27176 | 39.08086 | 33969 ft | 453 kts | 294° |
| 2026-05-05 18:57 | 25.30570 | 39.02205 | 33964 ft | 455 kts | 294° |
| 2026-05-05 18:57 | 25.33940 | 38.96377 | 33969 ft | 457 kts | 294° |
| 2026-05-05 18:58 | 25.37384 | 38.90464 | 33955 ft | 458 kts | 294° |
| 2026-05-05 18:58 | 25.40834 | 38.84552 | 33953 ft | 458 kts | 294° |
| 2026-05-05 18:59 | 25.44282 | 38.78639 | 33952 ft | 457 kts | 294° |
| 2026-05-05 18:59 | 25.47698 | 38.72774 | 33952 ft | 456 kts | 294° |
| 2026-05-05 19:00 | 25.51128 | 38.66873 | 33940 ft | 455 kts | 294° |
| 2026-05-05 19:00 | 25.54553 | 38.60975 | 33940 ft | 456 kts | 294° |
| 2026-05-05 19:01 | 25.57977 | 38.55068 | 33935 ft | 456 kts | 294° |
| 2026-05-05 19:01 | 25.61400 | 38.49158 | 33938 ft | 456 kts | 294° |
| 2026-05-05 19:02 | 25.64821 | 38.43244 | 33929 ft | 456 kts | 294° |
| 2026-05-05 19:02 | 25.68239 | 38.37327 | 33961 ft | 456 kts | 294° |
| 2026-05-05 19:03 | 25.71655 | 38.31406 | 33931 ft | 456 kts | 294° |
| 2026-05-05 19:03 | 25.75065 | 38.25490 | 33918 ft | 455 kts | 294° |
| 2026-05-05 19:04 | 25.78468 | 38.19577 | 33910 ft | 454 kts | 294° |
| 2026-05-05 19:04 | 25.81858 | 38.13680 | 33915 ft | 452 kts | 294° |
| 2026-05-05 19:05 | 25.85234 | 38.07800 | 33922 ft | 451 kts | 294° |
| 2026-05-05 19:05 | 25.88603 | 38.01918 | 33924 ft | 451 kts | 294° |
| 2026-05-05 19:06 | 25.91931 | 37.96105 | 33941 ft | 451 kts | 294° |
| 2026-05-05 19:06 | 25.95300 | 37.90214 | 33960 ft | 452 kts | 294° |
| 2026-05-05 19:07 | 25.98527 | 37.84301 | 33946 ft | 445 kts | 288° |
| 2026-05-05 19:07 | 26.00701 | 37.77968 | 33968 ft | 436 kts | 279° |
| 2026-05-05 19:08 | 26.01894 | 37.71446 | 33985 ft | 429 kts | 272° |
| 2026-05-05 19:08 | 26.02741 | 37.64867 | 33985 ft | 431 kts | 272° |
| 2026-05-05 19:09 | 26.03617 | 37.58261 | 33981 ft | 432 kts | 272° |
| 2026-05-05 19:09 | 26.04515 | 37.51660 | 33969 ft | 431 kts | 272° |
| 2026-05-05 19:10 | 26.05403 | 37.45065 | 33977 ft | 432 kts | 272° |
| 2026-05-05 19:10 | 26.06281 | 37.38445 | 33967 ft | 433 kts | 273° |
| 2026-05-05 19:11 | 26.07159 | 37.31812 | 33966 ft | 434 kts | 272° |
| 2026-05-05 19:11 | 26.08038 | 37.25167 | 33962 ft | 434 kts | 272° |
| 2026-05-05 19:12 | 26.08914 | 37.18514 | 33953 ft | 435 kts | 272° |
| 2026-05-05 19:12 | 26.09786 | 37.11860 | 33944 ft | 435 kts | 272° |
| 2026-05-05 19:13 | 26.10656 | 37.05209 | 33953 ft | 434 kts | 272° |
| 2026-05-05 19:13 | 26.11511 | 36.98641 | 33955 ft | 434 kts | 272° |
| 2026-05-05 19:14 | 26.12368 | 36.92037 | 33946 ft | 434 kts | 272° |
| 2026-05-05 19:14 | 26.13227 | 36.85391 | 33933 ft | 434 kts | 272° |
| 2026-05-05 19:15 | 26.14083 | 36.78749 | 33939 ft | 434 kts | 272° |
| 2026-05-05 19:15 | 26.14935 | 36.72102 | 33941 ft | 434 kts | 272° |
| 2026-05-05 19:16 | 26.15786 | 36.65445 | 33935 ft | 435 kts | 272° |
| 2026-05-05 19:16 | 26.16635 | 36.58782 | 33932 ft | 435 kts | 272° |
| 2026-05-05 19:17 | 26.17754 | 36.52158 | 33936 ft | 443 kts | 283° |
| 2026-05-05 19:17 | 26.20574 | 36.45948 | 33949 ft | 458 kts | 296° |
| 2026-05-05 19:18 | 26.24850 | 36.40530 | 33944 ft | 471 kts | 306° |
| 2026-05-05 19:18 | 26.29484 | 36.35351 | 33973 ft | 473 kts | 306° |
| 2026-05-05 19:19 | 26.34108 | 36.30130 | 33943 ft | 473 kts | 306° |
| 2026-05-05 19:19 | 26.38689 | 36.24868 | 33949 ft | 472 kts | 306° |
| 2026-05-05 19:20 | 26.43250 | 36.19594 | 33938 ft | 472 kts | 306° |
| 2026-05-05 19:20 | 26.47798 | 36.14328 | 33935 ft | 471 kts | 306° |
| 2026-05-05 19:21 | 26.52337 | 36.09069 | 33937 ft | 470 kts | 306° |
| 2026-05-05 19:21 | 26.56867 | 36.03816 | 33939 ft | 469 kts | 306° |
| 2026-05-05 19:22 | 26.61342 | 35.98619 | 33937 ft | 469 kts | 306° |
| 2026-05-05 19:22 | 26.65861 | 35.93365 | 33972 ft | 469 kts | 306° |
| 2026-05-05 19:23 | 26.70381 | 35.88103 | 33948 ft | 469 kts | 306° |
| 2026-05-05 19:23 | 26.74898 | 35.82839 | 33939 ft | 469 kts | 306° |
| 2026-05-05 19:24 | 26.79412 | 35.77572 | 33943 ft | 469 kts | 306° |
| 2026-05-05 19:24 | 26.83924 | 35.72303 | 33950 ft | 469 kts | 306° |
| 2026-05-05 19:25 | 26.88433 | 35.67031 | 33946 ft | 468 kts | 306° |
| 2026-05-05 19:25 | 26.92935 | 35.61758 | 33947 ft | 468 kts | 306° |
| 2026-05-05 19:26 | 26.97433 | 35.56483 | 33949 ft | 468 kts | 306° |
| 2026-05-05 19:26 | 27.01897 | 35.51243 | 33944 ft | 468 kts | 306° |
| 2026-05-05 19:27 | 27.06390 | 35.45961 | 33948 ft | 468 kts | 306° |
| 2026-05-05 19:27 | 27.10876 | 35.40683 | 33957 ft | 467 kts | 306° |
| 2026-05-05 19:28 | 27.15351 | 35.35409 | 33953 ft | 466 kts | 306° |
| 2026-05-05 19:28 | 27.19819 | 35.30138 | 33958 ft | 466 kts | 306° |
| 2026-05-05 19:29 | 27.24281 | 35.24866 | 33959 ft | 465 kts | 306° |
| 2026-05-05 19:29 | 27.28738 | 35.19592 | 33962 ft | 465 kts | 306° |
| 2026-05-05 19:30 | 27.33195 | 35.14315 | 33966 ft | 465 kts | 306° |
| 2026-05-05 19:30 | 27.37647 | 35.09035 | 33968 ft | 465 kts | 306° |
| 2026-05-05 19:31 | 27.42099 | 35.03748 | 33993 ft | 466 kts | 306° |
| 2026-05-05 19:31 | 27.46506 | 34.98509 | 33982 ft | 466 kts | 306° |
| 2026-05-05 19:32 | 27.50961 | 34.93211 | 33968 ft | 466 kts | 307° |
| 2026-05-05 19:32 | 27.55640 | 34.88126 | 33970 ft | 468 kts | 310° |
| 2026-05-05 19:33 | 27.60420 | 34.83130 | 33973 ft | 469 kts | 310° |
| 2026-05-05 19:33 | 27.65190 | 34.78121 | 33973 ft | 468 kts | 310° |
| 2026-05-05 19:34 | 27.69943 | 34.73092 | 33970 ft | 469 kts | 310° |
| 2026-05-05 19:35 | 27.77041 | 34.65555 | 34004 ft | 469 kts | 310° |
| 2026-05-05 19:35 | 27.81799 | 34.60496 | 33977 ft | 469 kts | 310° |
| 2026-05-05 19:36 | 27.86548 | 34.55442 | 33966 ft | 469 kts | 310° |
| 2026-05-05 19:36 | 27.91283 | 34.50396 | 33968 ft | 468 kts | 310° |
| 2026-05-05 19:37 | 27.96015 | 34.45346 | 33975 ft | 467 kts | 310° |
| 2026-05-05 19:37 | 28.00632 | 34.40231 | 33977 ft | 461 kts | 305° |
| 2026-05-05 19:38 | 28.04686 | 34.34660 | 33957 ft | 458 kts | 303° |
| 2026-05-05 19:38 | 28.08690 | 34.29049 | 33965 ft | 458 kts | 303° |
| 2026-05-05 19:39 | 28.12714 | 34.23445 | 33990 ft | 459 kts | 303° |
| 2026-05-05 19:39 | 28.16090 | 34.18756 | 34024 ft | 458 kts | 303° |
| 2026-05-05 19:40 | 28.20087 | 34.13207 | 34012 ft | 457 kts | 303° |
| 2026-05-05 19:40 | 28.24110 | 34.07622 | 34032 ft | 457 kts | 303° |
| 2026-05-05 19:41 | 28.28128 | 34.02027 | 34026 ft | 457 kts | 303° |
| 2026-05-05 19:41 | 28.32098 | 33.96493 | 34033 ft | 457 kts | 303° |
| 2026-05-05 19:42 | 28.36119 | 33.90878 | 34038 ft | 459 kts | 303° |
| 2026-05-05 19:42 | 28.40147 | 33.85248 | 34045 ft | 459 kts | 303° |
| 2026-05-05 19:43 | 28.44170 | 33.79618 | 34047 ft | 458 kts | 303° |
| 2026-05-05 19:43 | 28.48181 | 33.74003 | 34018 ft | 456 kts | 303° |
| 2026-05-05 19:44 | 28.52167 | 33.68405 | 34029 ft | 455 kts | 303° |
| 2026-05-05 19:44 | 28.56142 | 33.62815 | 34048 ft | 454 kts | 303° |
| 2026-05-05 19:45 | 28.60113 | 33.57229 | 34049 ft | 454 kts | 303° |
| 2026-05-05 19:45 | 28.64079 | 33.51642 | 34045 ft | 454 kts | 303° |
| 2026-05-05 19:46 | 28.68045 | 33.46053 | 34045 ft | 454 kts | 303° |
| 2026-05-05 19:46 | 28.72009 | 33.40462 | 34052 ft | 453 kts | 303° |
| 2026-05-05 19:47 | 28.75969 | 33.34869 | 34051 ft | 453 kts | 303° |
| 2026-05-05 19:47 | 28.79926 | 33.29271 | 34056 ft | 453 kts | 303° |
| 2026-05-05 19:48 | 28.83879 | 33.23668 | 34055 ft | 454 kts | 303° |
| 2026-05-05 19:48 | 28.87837 | 33.18052 | 34059 ft | 454 kts | 303° |
| 2026-05-05 19:49 | 28.91782 | 33.12450 | 34420 ft | 450 kts | 303° |
| 2026-05-05 19:49 | 28.93742 | 33.09664 | 34683 ft | 450 kts | 303° |
| 2026-05-05 19:49 | 28.95700 | 33.06878 | 34960 ft | 449 kts | 303° |
| 2026-05-05 19:49 | 28.97651 | 33.04100 | 35234 ft | 448 kts | 302° |
| 2026-05-05 19:50 | 28.99598 | 33.01326 | 35512 ft | 447 kts | 302° |
| 2026-05-05 19:50 | 29.01490 | 32.98628 | 35782 ft | 446 kts | 302° |
| 2026-05-05 19:50 | 29.03427 | 32.95863 | 35985 ft | 447 kts | 302° |
| 2026-05-05 19:51 | 29.07340 | 32.90266 | 36060 ft | 454 kts | 302° |
| 2026-05-05 19:51 | 29.11275 | 32.84642 | 36058 ft | 451 kts | 302° |
| 2026-05-05 19:52 | 29.15147 | 32.79101 | 36061 ft | 447 kts | 302° |
| 2026-05-05 19:52 | 29.19017 | 32.73551 | 36065 ft | 445 kts | 302° |
| 2026-05-05 19:53 | 29.22873 | 32.68010 | 36073 ft | 445 kts | 302° |
| 2026-05-05 19:53 | 29.26738 | 32.62450 | 36073 ft | 447 kts | 302° |
| 2026-05-05 19:54 | 29.30605 | 32.56864 | 36080 ft | 448 kts | 302° |
| 2026-05-05 19:54 | 29.34459 | 32.51246 | 36108 ft | 449 kts | 302° |
| 2026-05-05 19:55 | 29.38317 | 32.45608 | 36072 ft | 450 kts | 302° |
| 2026-05-05 19:55 | 29.42180 | 32.39963 | 36073 ft | 449 kts | 302° |
| 2026-05-05 19:56 | 29.46027 | 32.34334 | 36099 ft | 448 kts | 302° |
| 2026-05-05 19:56 | 29.49864 | 32.28712 | 36086 ft | 447 kts | 302° |
| 2026-05-05 19:57 | 29.53693 | 32.23095 | 36100 ft | 446 kts | 302° |
| 2026-05-05 19:57 | 29.57512 | 32.17484 | 36090 ft | 446 kts | 302° |
| 2026-05-05 19:58 | 29.61325 | 32.11874 | 36088 ft | 445 kts | 302° |
| 2026-05-05 19:58 | 29.65109 | 32.06298 | 36120 ft | 445 kts | 302° |
| 2026-05-05 19:59 | 29.68945 | 32.00637 | 36097 ft | 446 kts | 302° |
| 2026-05-05 19:59 | 29.72712 | 31.95073 | 36090 ft | 446 kts | 302° |
| 2026-05-05 20:00 | 29.76494 | 31.89478 | 36112 ft | 446 kts | 302° |
| 2026-05-05 20:00 | 29.80278 | 31.83813 | 36098 ft | 446 kts | 301° |
| 2026-05-05 20:01 | 29.83965 | 31.78093 | 36106 ft | 444 kts | 301° |
| 2026-05-05 20:01 | 29.87637 | 31.72371 | 36092 ft | 443 kts | 301° |
| 2026-05-05 20:02 | 29.91309 | 31.66666 | 36093 ft | 443 kts | 301° |
| 2026-05-05 20:02 | 29.94975 | 31.60972 | 36093 ft | 442 kts | 301° |
| 2026-05-05 20:03 | 29.98633 | 31.55283 | 36096 ft | 441 kts | 301° |
| 2026-05-05 20:03 | 30.02283 | 31.49598 | 36111 ft | 441 kts | 302° |
| 2026-05-05 20:04 | 30.05933 | 31.43905 | 36105 ft | 441 kts | 302° |
| 2026-05-05 20:04 | 30.09730 | 31.38320 | 36105 ft | 445 kts | 307° |
| 2026-05-05 20:05 | 30.14177 | 31.33377 | 36109 ft | 448 kts | 312° |
| 2026-05-05 20:05 | 30.18815 | 31.28463 | 36099 ft | 449 kts | 311° |
| 2026-05-05 20:06 | 30.23400 | 31.23573 | 36106 ft | 448 kts | 311° |
| 2026-05-05 20:06 | 30.27933 | 31.18708 | 36099 ft | 448 kts | 311° |
| 2026-05-05 20:07 | 30.32490 | 31.13801 | 36104 ft | 447 kts | 311° |
| 2026-05-05 20:07 | 30.37035 | 31.08900 | 36103 ft | 446 kts | 311° |
| 2026-05-05 20:08 | 30.41573 | 31.04000 | 36107 ft | 446 kts | 311° |
| 2026-05-05 20:08 | 30.46048 | 30.99162 | 36107 ft | 446 kts | 311° |
| 2026-05-05 20:09 | 30.50581 | 30.94256 | 36143 ft | 446 kts | 312° |
| 2026-05-05 20:09 | 30.55112 | 30.89344 | 36118 ft | 445 kts | 312° |
| 2026-05-05 20:10 | 30.59633 | 30.84439 | 36109 ft | 445 kts | 312° |
| 2026-05-05 20:10 | 30.64143 | 30.79537 | 36111 ft | 444 kts | 312° |
| 2026-05-05 20:11 | 30.68644 | 30.74639 | 36110 ft | 443 kts | 312° |
| 2026-05-05 20:11 | 30.73137 | 30.69742 | 36109 ft | 443 kts | 312° |
| 2026-05-05 20:12 | 30.77629 | 30.64841 | 36110 ft | 443 kts | 312° |
| 2026-05-05 20:12 | 30.82122 | 30.59932 | 36108 ft | 443 kts | 312° |
| 2026-05-05 20:13 | 30.86614 | 30.55018 | 36116 ft | 443 kts | 312° |
| 2026-05-05 20:13 | 30.91104 | 30.50097 | 36109 ft | 443 kts | 312° |
| 2026-05-05 20:14 | 30.95593 | 30.45172 | 36111 ft | 443 kts | 312° |
| 2026-05-05 20:14 | 31.00068 | 30.40255 | 36108 ft | 443 kts | 312° |
| 2026-05-05 20:15 | 31.04549 | 30.35325 | 36106 ft | 443 kts | 312° |
| 2026-05-05 20:15 | 31.08432 | 30.29876 | 36113 ft | 434 kts | 298° |
| 2026-05-05 20:16 | 31.11089 | 30.23643 | 36102 ft | 431 kts | 287° |
| 2026-05-05 20:16 | 31.12880 | 30.16980 | 36103 ft | 431 kts | 285° |
| 2026-05-05 20:17 | 31.14658 | 30.10296 | 36115 ft | 432 kts | 287° |
| 2026-05-05 20:17 | 31.16483 | 30.03605 | 36105 ft | 433 kts | 287° |
| 2026-05-05 20:18 | 31.18520 | 29.97069 | 36105 ft | 435 kts | 294° |
| 2026-05-05 20:18 | 31.21429 | 29.90854 | 36107 ft | 438 kts | 301° |
| 2026-05-05 20:19 | 31.24986 | 29.85059 | 36108 ft | 439 kts | 304° |
| 2026-05-05 20:19 | 31.28627 | 29.79314 | 36111 ft | 440 kts | 304° |
| 2026-05-05 20:20 | 31.32252 | 29.73546 | 36110 ft | 440 kts | 304° |
| 2026-05-05 20:20 | 31.35857 | 29.67763 | 36104 ft | 440 kts | 304° |
| 2026-05-05 20:21 | 31.39450 | 29.61978 | 36104 ft | 439 kts | 304° |
| 2026-05-05 20:21 | 31.43034 | 29.56197 | 36109 ft | 438 kts | 304° |
| 2026-05-05 20:22 | 31.46587 | 29.50461 | 36110 ft | 438 kts | 304° |
| 2026-05-05 20:22 | 31.50162 | 29.44682 | 36108 ft | 438 kts | 304° |
| 2026-05-05 20:23 | 31.53728 | 29.38906 | 36106 ft | 437 kts | 304° |
| 2026-05-05 20:23 | 31.57292 | 29.33127 | 36107 ft | 437 kts | 304° |
| 2026-05-05 20:24 | 31.60846 | 29.27338 | 36110 ft | 437 kts | 304° |
| 2026-05-05 20:24 | 31.64382 | 29.21534 | 36111 ft | 437 kts | 304° |
| 2026-05-05 20:25 | 31.67917 | 29.15727 | 36112 ft | 437 kts | 304° |
| 2026-05-05 20:25 | 31.71487 | 29.09935 | 36126 ft | 438 kts | 307° |
| 2026-05-05 20:26 | 31.75659 | 29.04702 | 36115 ft | 440 kts | 316° |
| 2026-05-05 20:26 | 31.80383 | 29.00106 | 36125 ft | 441 kts | 318° |
| 2026-05-05 20:27 | 31.85102 | 28.95615 | 36107 ft | 441 kts | 318° |
| 2026-05-05 20:27 | 31.89858 | 28.91059 | 36116 ft | 441 kts | 318° |
| 2026-05-05 20:28 | 31.94602 | 28.86487 | 36113 ft | 440 kts | 318° |
| 2026-05-05 20:28 | 31.99335 | 28.81910 | 36114 ft | 440 kts | 318° |
| 2026-05-05 20:29 | 32.03258 | 28.78109 | 36114 ft | 440 kts | 318° |
| 2026-05-05 20:29 | 32.07983 | 28.73528 | 36108 ft | 439 kts | 318° |
| 2026-05-05 20:30 | 32.12697 | 28.68950 | 36115 ft | 439 kts | 318° |
| 2026-05-05 20:30 | 32.17404 | 28.64374 | 36122 ft | 438 kts | 318° |
| 2026-05-05 20:31 | 32.22104 | 28.59798 | 36106 ft | 437 kts | 318° |
| 2026-05-05 20:31 | 32.26792 | 28.55227 | 36103 ft | 437 kts | 318° |
| 2026-05-05 20:32 | 32.31477 | 28.50653 | 36105 ft | 437 kts | 318° |
| 2026-05-05 20:32 | 32.36157 | 28.46077 | 36120 ft | 437 kts | 318° |
| 2026-05-05 20:33 | 32.40838 | 28.41493 | 36114 ft | 437 kts | 318° |
| 2026-05-05 20:33 | 32.45517 | 28.36906 | 36110 ft | 437 kts | 318° |
| 2026-05-05 20:34 | 32.50188 | 28.32320 | 36111 ft | 436 kts | 318° |
| 2026-05-05 20:34 | 32.54854 | 28.27733 | 36111 ft | 436 kts | 318° |
| 2026-05-05 20:35 | 32.59515 | 28.23144 | 36111 ft | 435 kts | 318° |
| 2026-05-05 20:35 | 32.64171 | 28.18554 | 36111 ft | 435 kts | 318° |
| 2026-05-05 20:36 | 32.68824 | 28.13960 | 36110 ft | 435 kts | 318° |
| 2026-05-05 20:36 | 32.73476 | 28.09360 | 36108 ft | 435 kts | 318° |
| 2026-05-05 20:37 | 32.78128 | 28.04755 | 36108 ft | 435 kts | 318° |
| 2026-05-05 20:37 | 32.82771 | 28.00152 | 36114 ft | 434 kts | 318° |
| 2026-05-05 20:38 | 32.87356 | 27.95600 | 36106 ft | 434 kts | 318° |
| 2026-05-05 20:38 | 32.91986 | 27.90996 | 36112 ft | 434 kts | 318° |
| 2026-05-05 20:39 | 32.96580 | 27.86422 | 36119 ft | 434 kts | 318° |
| 2026-05-05 20:39 | 33.01203 | 27.81812 | 36115 ft | 434 kts | 318° |
| 2026-05-05 20:40 | 33.05829 | 27.77193 | 36105 ft | 434 kts | 318° |
| 2026-05-05 20:40 | 33.10448 | 27.72575 | 36103 ft | 433 kts | 318° |
| 2026-05-05 20:41 | 33.15063 | 27.67954 | 36106 ft | 433 kts | 318° |
| 2026-05-05 20:41 | 33.19676 | 27.63328 | 36107 ft | 433 kts | 318° |
| 2026-05-05 20:42 | 33.24286 | 27.58700 | 36103 ft | 433 kts | 317° |
| 2026-05-05 20:42 | 33.28895 | 27.54064 | 36115 ft | 433 kts | 317° |
| 2026-05-05 20:43 | 33.33505 | 27.49422 | 36103 ft | 433 kts | 317° |
| 2026-05-05 20:43 | 33.38111 | 27.44777 | 36105 ft | 433 kts | 318° |
| 2026-05-05 20:44 | 33.42705 | 27.40138 | 36098 ft | 432 kts | 318° |
| 2026-05-05 20:44 | 33.47288 | 27.35502 | 36097 ft | 431 kts | 318° |
| 2026-05-05 20:45 | 33.54146 | 27.28554 | 36097 ft | 430 kts | 318° |
| 2026-05-05 20:45 | 33.58711 | 27.23920 | 36115 ft | 430 kts | 318° |
| 2026-05-05 20:46 | 33.63277 | 27.19279 | 36103 ft | 430 kts | 318° |
| 2026-05-05 20:46 | 33.67838 | 27.14636 | 36098 ft | 430 kts | 318° |
| 2026-05-05 20:47 | 33.72393 | 27.09993 | 36096 ft | 429 kts | 318° |
| 2026-05-05 20:47 | 33.76940 | 27.05350 | 36098 ft | 429 kts | 318° |
| 2026-05-05 20:48 | 33.81482 | 27.00706 | 36095 ft | 429 kts | 318° |
| 2026-05-05 20:48 | 33.85967 | 26.96114 | 36098 ft | 428 kts | 318° |
| 2026-05-05 20:49 | 33.90506 | 26.91459 | 36094 ft | 429 kts | 318° |
| 2026-05-05 20:49 | 33.95048 | 26.86795 | 36082 ft | 429 kts | 318° |
| 2026-05-05 20:50 | 33.99924 | 26.82635 | 36107 ft | 432 kts | 328° |
| 2026-05-05 20:50 | 34.05340 | 26.79491 | 36085 ft | 436 kts | 336° |
| 2026-05-05 20:51 | 34.11091 | 26.77161 | 36098 ft | 437 kts | 338° |
| 2026-05-05 20:51 | 34.16874 | 26.74915 | 36125 ft | 437 kts | 338° |
| 2026-05-05 20:52 | 34.22656 | 26.72639 | 36093 ft | 437 kts | 338° |
| 2026-05-05 20:52 | 34.28389 | 26.70351 | 36089 ft | 437 kts | 338° |
| 2026-05-05 20:53 | 34.34159 | 26.68035 | 36090 ft | 437 kts | 338° |
| 2026-05-05 20:53 | 34.39925 | 26.65715 | 36090 ft | 437 kts | 338° |
| 2026-05-05 20:54 | 34.45689 | 26.63393 | 36095 ft | 437 kts | 338° |
| 2026-05-05 20:54 | 34.51454 | 26.61069 | 36090 ft | 436 kts | 338° |
| 2026-05-05 20:55 | 34.57215 | 26.58742 | 36089 ft | 436 kts | 338° |
| 2026-05-05 20:55 | 34.62971 | 26.56414 | 36080 ft | 436 kts | 338° |
| 2026-05-05 20:56 | 34.68719 | 26.54085 | 36105 ft | 435 kts | 339° |
| 2026-05-05 20:56 | 34.74459 | 26.51759 | 36087 ft | 435 kts | 339° |
| 2026-05-05 20:57 | 34.80188 | 26.49432 | 36083 ft | 434 kts | 339° |
| 2026-05-05 20:57 | 34.85910 | 26.47104 | 36082 ft | 433 kts | 339° |
| 2026-05-05 20:58 | 34.91623 | 26.44776 | 36078 ft | 433 kts | 339° |
| 2026-05-05 20:58 | 34.97330 | 26.42447 | 36085 ft | 432 kts | 339° |
| 2026-05-05 20:59 | 35.03016 | 26.40125 | 36077 ft | 431 kts | 339° |
| 2026-05-05 20:59 | 35.08687 | 26.37804 | 36078 ft | 429 kts | 339° |
| 2026-05-05 21:00 | 35.14343 | 26.35487 | 36081 ft | 428 kts | 339° |
| 2026-05-05 21:00 | 35.19985 | 26.33171 | 36095 ft | 427 kts | 339° |
| 2026-05-05 21:01 | 35.25585 | 26.30869 | 36081 ft | 427 kts | 339° |
| 2026-05-05 21:01 | 35.31217 | 26.28551 | 36081 ft | 427 kts | 339° |
| 2026-05-05 21:02 | 35.36847 | 26.26230 | 36078 ft | 427 kts | 339° |
| 2026-05-05 21:02 | 35.42469 | 26.23909 | 36079 ft | 426 kts | 339° |
| 2026-05-05 21:03 | 35.48083 | 26.21588 | 36078 ft | 426 kts | 339° |
| 2026-05-05 21:03 | 35.53692 | 26.19266 | 36079 ft | 425 kts | 339° |
| 2026-05-05 21:04 | 35.59297 | 26.16942 | 36079 ft | 425 kts | 339° |
| 2026-05-05 21:04 | 35.64902 | 26.14614 | 36079 ft | 425 kts | 339° |
| 2026-05-05 21:05 | 35.70506 | 26.12284 | 36092 ft | 425 kts | 339° |
| 2026-05-05 21:05 | 35.76109 | 26.09950 | 36081 ft | 425 kts | 339° |
| 2026-05-05 21:06 | 35.81707 | 26.07615 | 36076 ft | 424 kts | 339° |
| 2026-05-05 21:06 | 35.87296 | 26.05281 | 36076 ft | 424 kts | 339° |
| 2026-05-05 21:07 | 35.92883 | 26.02943 | 36077 ft | 424 kts | 339° |
| 2026-05-05 21:07 | 35.98467 | 26.00603 | 36086 ft | 424 kts | 339° |
| 2026-05-05 21:08 | 36.03973 | 25.98293 | 36077 ft | 423 kts | 339° |
| 2026-05-05 21:08 | 36.09545 | 25.95951 | 36079 ft | 423 kts | 339° |
| 2026-05-05 21:09 | 36.15108 | 25.93609 | 36073 ft | 422 kts | 339° |
| 2026-05-05 21:09 | 36.20658 | 25.91269 | 36102 ft | 421 kts | 339° |
| 2026-05-05 21:10 | 36.26192 | 25.88926 | 36076 ft | 419 kts | 338° |
| 2026-05-05 21:10 | 36.31693 | 25.86552 | 36072 ft | 418 kts | 338° |
| 2026-05-05 21:11 | 36.37172 | 25.84176 | 36079 ft | 417 kts | 338° |
| 2026-05-05 21:11 | 36.42603 | 25.81820 | 36074 ft | 416 kts | 338° |
| 2026-05-05 21:12 | 36.48070 | 25.79448 | 36080 ft | 416 kts | 338° |
| 2026-05-05 21:12 | 36.53535 | 25.77073 | 36073 ft | 416 kts | 338° |
| 2026-05-05 21:13 | 36.58997 | 25.74697 | 36071 ft | 416 kts | 338° |
| 2026-05-05 21:13 | 36.64460 | 25.72317 | 36070 ft | 416 kts | 338° |
| 2026-05-05 21:14 | 36.69923 | 25.69933 | 36087 ft | 416 kts | 338° |
| 2026-05-05 21:14 | 36.75391 | 25.67544 | 36065 ft | 416 kts | 338° |
| 2026-05-05 21:15 | 36.80856 | 25.65152 | 36084 ft | 416 kts | 338° |
| 2026-05-05 21:15 | 36.86317 | 25.62758 | 36078 ft | 416 kts | 338° |
| 2026-05-05 21:16 | 36.90887 | 25.60753 | 36072 ft | 415 kts | 338° |
| 2026-05-05 21:16 | 36.96298 | 25.58374 | 36066 ft | 415 kts | 338° |
| 2026-05-05 21:17 | 37.01726 | 25.55984 | 36072 ft | 414 kts | 338° |
| 2026-05-05 21:17 | 37.07166 | 25.53584 | 36069 ft | 415 kts | 338° |
| 2026-05-05 21:18 | 37.12617 | 25.51177 | 36069 ft | 416 kts | 338° |
| 2026-05-05 21:18 | 37.18068 | 25.48769 | 36087 ft | 415 kts | 338° |
| 2026-05-05 21:19 | 37.23511 | 25.46358 | 36071 ft | 414 kts | 337° |
| 2026-05-05 21:19 | 37.28942 | 25.43949 | 36071 ft | 413 kts | 337° |
| 2026-05-05 21:20 | 37.34362 | 25.41540 | 36073 ft | 413 kts | 337° |
| 2026-05-05 21:20 | 37.39776 | 25.39131 | 36075 ft | 413 kts | 337° |
| 2026-05-05 21:21 | 37.45194 | 25.36716 | 36091 ft | 414 kts | 337° |
| 2026-05-05 21:21 | 37.50635 | 25.34287 | 36085 ft | 416 kts | 337° |
| 2026-05-05 21:22 | 37.56096 | 25.31847 | 36062 ft | 416 kts | 337° |
| 2026-05-05 21:22 | 37.61547 | 25.29407 | 36072 ft | 415 kts | 337° |
| 2026-05-05 21:23 | 37.66990 | 25.26966 | 36075 ft | 415 kts | 337° |
| 2026-05-05 21:23 | 37.72446 | 25.24515 | 36073 ft | 417 kts | 337° |
| 2026-05-05 21:24 | 37.77919 | 25.22053 | 36071 ft | 418 kts | 337° |
| 2026-05-05 21:24 | 37.83406 | 25.19581 | 36067 ft | 419 kts | 337° |
| 2026-05-05 21:25 | 37.88864 | 25.17118 | 36065 ft | 420 kts | 337° |
| 2026-05-05 21:25 | 37.94364 | 25.14633 | 36065 ft | 420 kts | 337° |
| 2026-05-05 21:26 | 37.99866 | 25.12142 | 36064 ft | 420 kts | 337° |
| 2026-05-05 21:26 | 38.05353 | 25.09655 | 36065 ft | 419 kts | 337° |
| 2026-05-05 21:27 | 38.10844 | 25.07161 | 36065 ft | 419 kts | 337° |
| 2026-05-05 21:27 | 38.16335 | 25.04663 | 36066 ft | 420 kts | 337° |
| 2026-05-05 21:28 | 38.21848 | 25.02151 | 36064 ft | 422 kts | 337° |
| 2026-05-05 21:28 | 38.27307 | 24.99660 | 36054 ft | 423 kts | 337° |
| 2026-05-05 21:29 | 38.32844 | 24.97130 | 36060 ft | 423 kts | 337° |
| 2026-05-05 21:29 | 38.38391 | 24.94590 | 36070 ft | 424 kts | 338° |
| 2026-05-05 21:30 | 38.43952 | 24.92041 | 36061 ft | 425 kts | 338° |
| 2026-05-05 21:30 | 38.49520 | 24.89483 | 36061 ft | 426 kts | 338° |
| 2026-05-05 21:31 | 38.55096 | 24.86919 | 36063 ft | 426 kts | 338° |
| 2026-05-05 21:31 | 38.60674 | 24.84348 | 36058 ft | 426 kts | 338° |
| 2026-05-05 21:32 | 38.66262 | 24.81768 | 36065 ft | 428 kts | 338° |
| 2026-05-05 21:32 | 38.71867 | 24.79177 | 36062 ft | 429 kts | 338° |
| 2026-05-05 21:33 | 38.77481 | 24.76577 | 36060 ft | 429 kts | 338° |
| 2026-05-05 21:33 | 38.83101 | 24.73970 | 36060 ft | 430 kts | 338° |
| 2026-05-05 21:34 | 38.88728 | 24.71355 | 36065 ft | 431 kts | 338° |
| 2026-05-05 21:34 | 38.94369 | 24.68730 | 36064 ft | 431 kts | 338° |
| 2026-05-05 21:35 | 39.00008 | 24.66100 | 36060 ft | 432 kts | 338° |
| 2026-05-05 21:35 | 39.05659 | 24.63461 | 36058 ft | 432 kts | 338° |
| 2026-05-05 21:36 | 39.11314 | 24.60815 | 36071 ft | 433 kts | 338° |
| 2026-05-05 21:36 | 39.16978 | 24.58160 | 36065 ft | 434 kts | 338° |
| 2026-05-05 21:37 | 39.22651 | 24.55497 | 36055 ft | 434 kts | 338° |
| 2026-05-05 21:37 | 39.28324 | 24.52828 | 36055 ft | 434 kts | 338° |
| 2026-05-05 21:38 | 39.33997 | 24.50156 | 36056 ft | 434 kts | 338° |
| 2026-05-05 21:38 | 39.39650 | 24.47413 | 36062 ft | 434 kts | 337° |
| 2026-05-05 21:39 | 39.45290 | 24.44624 | 36057 ft | 434 kts | 337° |
| 2026-05-05 21:39 | 39.50929 | 24.41834 | 36043 ft | 434 kts | 337° |
| 2026-05-05 21:40 | 39.56567 | 24.39048 | 36055 ft | 434 kts | 337° |
| 2026-05-05 21:40 | 39.62207 | 24.36259 | 36060 ft | 434 kts | 337° |
| 2026-05-05 21:41 | 39.67803 | 24.33488 | 36062 ft | 433 kts | 337° |
| 2026-05-05 21:41 | 39.73432 | 24.30696 | 36065 ft | 433 kts | 337° |
| 2026-05-05 21:42 | 39.79053 | 24.27902 | 36051 ft | 433 kts | 337° |
| 2026-05-05 21:42 | 39.84678 | 24.25102 | 36065 ft | 433 kts | 337° |
| 2026-05-05 21:43 | 39.90302 | 24.22297 | 36067 ft | 433 kts | 337° |
| 2026-05-05 21:43 | 39.95930 | 24.19486 | 36053 ft | 433 kts | 337° |
| 2026-05-05 21:44 | 40.01552 | 24.16672 | 36057 ft | 434 kts | 338° |
| 2026-05-05 21:44 | 40.07196 | 24.13842 | 36061 ft | 435 kts | 338° |
| 2026-05-05 21:45 | 40.12849 | 24.11003 | 36061 ft | 436 kts | 338° |
| 2026-05-05 21:45 | 40.18510 | 24.08155 | 36059 ft | 436 kts | 338° |
| 2026-05-05 21:46 | 40.24176 | 24.05300 | 36052 ft | 436 kts | 337° |
| 2026-05-05 21:46 | 40.29838 | 24.02441 | 36040 ft | 436 kts | 337° |
| 2026-05-05 21:47 | 40.35405 | 23.99624 | 36044 ft | 435 kts | 337° |
| 2026-05-05 21:47 | 40.41047 | 23.96764 | 36048 ft | 435 kts | 337° |
| 2026-05-05 21:48 | 40.46690 | 23.93899 | 36069 ft | 434 kts | 337° |
| 2026-05-05 21:48 | 40.52328 | 23.91032 | 36052 ft | 435 kts | 337° |
| 2026-05-05 21:49 | 40.57967 | 23.88159 | 36043 ft | 435 kts | 337° |
| 2026-05-05 21:49 | 40.63576 | 23.85296 | 36045 ft | 435 kts | 337° |
| 2026-05-05 21:50 | 40.69228 | 23.82405 | 36065 ft | 436 kts | 337° |
| 2026-05-05 21:50 | 40.74885 | 23.79507 | 36048 ft | 437 kts | 337° |
| 2026-05-05 21:51 | 40.80550 | 23.76600 | 36046 ft | 437 kts | 337° |
| 2026-05-05 21:51 | 40.86219 | 23.73685 | 36050 ft | 437 kts | 337° |
| 2026-05-05 21:52 | 40.94723 | 23.69302 | 36034 ft | 437 kts | 337° |
| 2026-05-05 21:53 | 41.00382 | 23.66378 | 36053 ft | 437 kts | 337° |
| 2026-05-05 21:53 | 41.06054 | 23.63443 | 36052 ft | 437 kts | 337° |
| 2026-05-05 21:54 | 41.11724 | 23.60503 | 36038 ft | 438 kts | 337° |
| 2026-05-05 21:54 | 41.17393 | 23.57557 | 36044 ft | 438 kts | 337° |
| 2026-05-05 21:55 | 41.23071 | 23.54603 | 36044 ft | 438 kts | 337° |
| 2026-05-05 21:55 | 41.28747 | 23.51643 | 36054 ft | 439 kts | 337° |
| 2026-05-05 21:56 | 41.34430 | 23.48674 | 36040 ft | 439 kts | 337° |
| 2026-05-05 21:56 | 41.40107 | 23.45686 | 36054 ft | 439 kts | 336° |
| 2026-05-05 21:57 | 41.45622 | 23.42216 | 36039 ft | 438 kts | 333° |
| 2026-05-05 21:57 | 41.51089 | 23.38612 | 36066 ft | 438 kts | 332° |
| 2026-05-05 21:58 | 41.56559 | 23.35010 | 36065 ft | 439 kts | 333° |
| 2026-05-05 21:58 | 41.62039 | 23.31415 | 36063 ft | 439 kts | 333° |
| 2026-05-05 21:59 | 41.67536 | 23.27811 | 36060 ft | 440 kts | 333° |
| 2026-05-05 21:59 | 41.73032 | 23.24201 | 36062 ft | 440 kts | 333° |
| 2026-05-05 22:00 | 41.78536 | 23.20578 | 36056 ft | 441 kts | 333° |
| 2026-05-05 22:00 | 41.84034 | 23.16952 | 36064 ft | 441 kts | 333° |
| 2026-05-05 22:01 | 41.89512 | 23.13333 | 36400 ft | 436 kts | 333° |
| 2026-05-05 22:01 | 41.92230 | 23.11535 | 36707 ft | 435 kts | 332° |
| 2026-05-05 22:01 | 41.94940 | 23.09740 | 37020 ft | 434 kts | 332° |
| 2026-05-05 22:01 | 41.97645 | 23.07945 | 37316 ft | 433 kts | 332° |
| 2026-05-05 22:02 | 42.00334 | 23.06162 | 37626 ft | 431 kts | 332° |
| 2026-05-05 22:02 | 42.03018 | 23.04379 | 37938 ft | 430 kts | 332° |
| 2026-05-05 22:02 | 42.04800 | 23.03194 | 37998 ft | 433 kts | 332° |
| 2026-05-05 22:03 | 42.11078 | 22.99012 | 38056 ft | 442 kts | 332° |
| 2026-05-05 22:03 | 42.15714 | 22.95920 | 38065 ft | 445 kts | 332° |
| 2026-05-05 22:04 | 42.21272 | 22.92206 | 38064 ft | 446 kts | 332° |
| 2026-05-05 22:04 | 42.26833 | 22.88484 | 38057 ft | 446 kts | 332° |
| 2026-05-05 22:05 | 42.32383 | 22.84759 | 38053 ft | 445 kts | 332° |
| 2026-05-05 22:05 | 42.37875 | 22.81062 | 38063 ft | 443 kts | 332° |
| 2026-05-05 22:06 | 42.43383 | 22.77348 | 38048 ft | 441 kts | 332° |
| 2026-05-05 22:06 | 42.48871 | 22.73638 | 38058 ft | 440 kts | 331° |
| 2026-05-05 22:07 | 42.54346 | 22.69931 | 38065 ft | 440 kts | 332° |
| 2026-05-05 22:07 | 42.59822 | 22.66216 | 38062 ft | 440 kts | 331° |
| 2026-05-05 22:08 | 42.65305 | 22.62487 | 38066 ft | 441 kts | 331° |
| 2026-05-05 22:08 | 42.70797 | 22.58744 | 38063 ft | 442 kts | 331° |
| 2026-05-05 22:09 | 42.76298 | 22.54987 | 38066 ft | 443 kts | 331° |
| 2026-05-05 22:09 | 42.81808 | 22.51216 | 38046 ft | 444 kts | 331° |
| 2026-05-05 22:10 | 42.87324 | 22.47444 | 38058 ft | 444 kts | 332° |
| 2026-05-05 22:10 | 42.92852 | 22.43691 | 38055 ft | 444 kts | 332° |
| 2026-05-05 22:11 | 42.98380 | 22.39937 | 38060 ft | 444 kts | 331° |
| 2026-05-05 22:11 | 43.03906 | 22.36170 | 38052 ft | 445 kts | 332° |
| 2026-05-05 22:12 | 43.09441 | 22.32388 | 38038 ft | 444 kts | 332° |
| 2026-05-05 22:12 | 43.14965 | 22.28605 | 38036 ft | 443 kts | 332° |
| 2026-05-05 22:13 | 43.20478 | 22.24822 | 38041 ft | 443 kts | 331° |
| 2026-05-05 22:13 | 43.25960 | 22.21052 | 38039 ft | 444 kts | 331° |
| 2026-05-05 22:14 | 43.31488 | 22.17243 | 38031 ft | 445 kts | 331° |
| 2026-05-05 22:14 | 43.37026 | 22.13419 | 38028 ft | 446 kts | 331° |
| 2026-05-05 22:15 | 43.42574 | 22.09581 | 38030 ft | 447 kts | 331° |
| 2026-05-05 22:15 | 43.48128 | 22.05730 | 38029 ft | 447 kts | 331° |
| 2026-05-05 22:16 | 43.53688 | 22.01868 | 38021 ft | 448 kts | 331° |
| 2026-05-05 22:16 | 43.59186 | 21.98040 | 38021 ft | 448 kts | 331° |
| 2026-05-05 22:17 | 43.64749 | 21.94159 | 38017 ft | 448 kts | 331° |
| 2026-05-05 22:17 | 43.70314 | 21.90268 | 38016 ft | 448 kts | 331° |
| 2026-05-05 22:18 | 43.75880 | 21.86370 | 38007 ft | 448 kts | 331° |
| 2026-05-05 22:18 | 43.81444 | 21.82464 | 38003 ft | 448 kts | 331° |
| 2026-05-05 22:19 | 43.87004 | 21.78552 | 38001 ft | 448 kts | 331° |
| 2026-05-05 22:19 | 43.92561 | 21.74634 | 38024 ft | 448 kts | 331° |
| 2026-05-05 22:20 | 43.98082 | 21.70734 | 38021 ft | 449 kts | 331° |
| 2026-05-05 22:20 | 44.03642 | 21.66797 | 38001 ft | 449 kts | 331° |
| 2026-05-05 22:21 | 44.09212 | 21.62845 | 37998 ft | 450 kts | 331° |
| 2026-05-05 22:21 | 44.14795 | 21.58875 | 38022 ft | 451 kts | 330° |
| 2026-05-05 22:22 | 44.20395 | 21.54885 | 38022 ft | 452 kts | 330° |
| 2026-05-05 22:22 | 44.26004 | 21.50879 | 38001 ft | 453 kts | 330° |
| 2026-05-05 22:23 | 44.31623 | 21.46859 | 38001 ft | 454 kts | 330° |
| 2026-05-05 22:23 | 44.37250 | 21.42823 | 38002 ft | 455 kts | 330° |
| 2026-05-05 22:24 | 44.42850 | 21.38795 | 37985 ft | 456 kts | 330° |
| 2026-05-05 22:24 | 44.48489 | 21.34730 | 37984 ft | 456 kts | 330° |
| 2026-05-05 22:25 | 44.54132 | 21.30652 | 38007 ft | 457 kts | 330° |
| 2026-05-05 22:25 | 44.59781 | 21.26561 | 37982 ft | 457 kts | 330° |
| 2026-05-05 22:26 | 44.65429 | 21.22463 | 37973 ft | 457 kts | 330° |
| 2026-05-05 22:26 | 44.71073 | 21.18357 | 37985 ft | 457 kts | 330° |
| 2026-05-05 22:27 | 44.76720 | 21.14241 | 37977 ft | 457 kts | 330° |
| 2026-05-05 22:27 | 44.82365 | 21.10117 | 37984 ft | 457 kts | 330° |
| 2026-05-05 22:28 | 44.88007 | 21.05986 | 37985 ft | 457 kts | 330° |
| 2026-05-05 22:28 | 44.93614 | 21.01872 | 37982 ft | 457 kts | 330° |
| 2026-05-05 22:29 | 44.99161 | 20.97792 | 37979 ft | 457 kts | 330° |
| 2026-05-05 22:29 | 45.04785 | 20.93647 | 37983 ft | 457 kts | 330° |
| 2026-05-05 22:30 | 45.10415 | 20.89488 | 37978 ft | 456 kts | 330° |
| 2026-05-05 22:30 | 45.16034 | 20.85328 | 37984 ft | 455 kts | 330° |
| 2026-05-05 22:31 | 45.21647 | 20.81163 | 37986 ft | 455 kts | 330° |
| 2026-05-05 22:31 | 45.27250 | 20.76996 | 37990 ft | 455 kts | 330° |
| 2026-05-05 22:32 | 45.32854 | 20.72818 | 37982 ft | 455 kts | 330° |
| 2026-05-05 22:32 | 45.38459 | 20.68631 | 37979 ft | 455 kts | 330° |
| 2026-05-05 22:33 | 45.44070 | 20.64430 | 37978 ft | 456 kts | 330° |
| 2026-05-05 22:33 | 45.49677 | 20.60222 | 37988 ft | 456 kts | 330° |
| 2026-05-05 22:34 | 45.55295 | 20.55997 | 37975 ft | 457 kts | 330° |
| 2026-05-05 22:34 | 45.60919 | 20.51756 | 37977 ft | 457 kts | 330° |
| 2026-05-05 22:35 | 45.66546 | 20.47505 | 37976 ft | 458 kts | 330° |
| 2026-05-05 22:35 | 45.72179 | 20.43239 | 37973 ft | 458 kts | 330° |
| 2026-05-05 22:36 | 45.77819 | 20.38958 | 37978 ft | 459 kts | 329° |
| 2026-05-05 22:36 | 45.83463 | 20.34663 | 37972 ft | 460 kts | 329° |
| 2026-05-05 22:37 | 45.89110 | 20.30357 | 37971 ft | 460 kts | 329° |
| 2026-05-05 22:37 | 45.94759 | 20.26039 | 37971 ft | 460 kts | 329° |
| 2026-05-05 22:38 | 46.00362 | 20.21746 | 37975 ft | 460 kts | 329° |
| 2026-05-05 22:38 | 46.06013 | 20.17406 | 37978 ft | 460 kts | 329° |
| 2026-05-05 22:39 | 46.11663 | 20.13057 | 37969 ft | 461 kts | 329° |
| 2026-05-05 22:39 | 46.17313 | 20.08693 | 37970 ft | 460 kts | 329° |
| 2026-05-05 22:40 | 46.22921 | 20.04230 | 37977 ft | 460 kts | 328° |
| 2026-05-05 22:40 | 46.28466 | 19.99753 | 37970 ft | 461 kts | 328° |
| 2026-05-05 22:41 | 46.34071 | 19.95227 | 37974 ft | 462 kts | 328° |
| 2026-05-05 22:41 | 46.39683 | 19.90698 | 37969 ft | 462 kts | 328° |
| 2026-05-05 22:42 | 46.45303 | 19.86156 | 37970 ft | 463 kts | 328° |
| 2026-05-05 22:42 | 46.50925 | 19.81601 | 37972 ft | 463 kts | 328° |
| 2026-05-05 22:43 | 46.56551 | 19.77032 | 37975 ft | 463 kts | 328° |
| 2026-05-05 22:43 | 46.62176 | 19.72452 | 37963 ft | 464 kts | 328° |
| 2026-05-05 22:44 | 46.67803 | 19.67860 | 37967 ft | 464 kts | 328° |
| 2026-05-05 22:44 | 46.73428 | 19.63258 | 37976 ft | 464 kts | 328° |
| 2026-05-05 22:45 | 46.79057 | 19.58642 | 37966 ft | 464 kts | 328° |
| 2026-05-05 22:45 | 46.84688 | 19.54013 | 37965 ft | 464 kts | 328° |
| 2026-05-05 22:46 | 46.90317 | 19.49374 | 37960 ft | 465 kts | 328° |
| 2026-05-05 22:46 | 46.95944 | 19.44727 | 37962 ft | 464 kts | 328° |
| 2026-05-05 22:47 | 47.01561 | 19.40075 | 37959 ft | 465 kts | 328° |
| 2026-05-05 22:47 | 47.07186 | 19.35405 | 37957 ft | 465 kts | 328° |
| 2026-05-05 22:48 | 47.12810 | 19.30724 | 37949 ft | 465 kts | 328° |
| 2026-05-05 22:48 | 47.18433 | 19.26033 | 37950 ft | 465 kts | 328° |
| 2026-05-05 22:49 | 47.24018 | 19.21363 | 37941 ft | 465 kts | 328° |
| 2026-05-05 22:49 | 47.29630 | 19.16652 | 37937 ft | 463 kts | 326° |
| 2026-05-05 22:49 | 47.32213 | 19.13873 | 37940 ft | 459 kts | 315° |
| 2026-05-05 22:50 | 47.34386 | 19.10460 | 37951 ft | 456 kts | 307° |
| 2026-05-05 22:50 | 47.37554 | 19.02433 | 37956 ft | 453 kts | 293° |
| 2026-05-05 22:51 | 47.40097 | 18.94029 | 37936 ft | 454 kts | 293° |
| 2026-05-05 22:51 | 47.42695 | 18.85510 | 37931 ft | 456 kts | 293° |
| 2026-05-05 22:52 | 47.45339 | 18.76989 | 37924 ft | 457 kts | 294° |
| 2026-05-05 22:52 | 47.47994 | 18.68451 | 37795 ft | 459 kts | 294° |
| 2026-05-05 22:52 | 47.49328 | 18.64146 | 37219 ft | 462 kts | 293° |
| 2026-05-05 22:53 | 47.50663 | 18.59833 | 36691 ft | 460 kts | 293° |
| 2026-05-05 22:53 | 47.51543 | 18.56985 | 36358 ft | 458 kts | 293° |
| 2026-05-05 22:53 | 47.52863 | 18.52704 | 35848 ft | 457 kts | 293° |
| 2026-05-05 22:53 | 47.54132 | 18.48392 | 35326 ft | 457 kts | 290° |
| 2026-05-05 22:54 | 47.55161 | 18.43947 | 34782 ft | 457 kts | 287° |
| 2026-05-05 22:54 | 47.56116 | 18.39437 | 34080 ft | 461 kts | 286° |
| 2026-05-05 22:54 | 47.57060 | 18.34889 | 33322 ft | 464 kts | 286° |
| 2026-05-05 22:54 | 47.58010 | 18.30309 | 32560 ft | 466 kts | 286° |
| 2026-05-05 22:55 | 47.58967 | 18.25722 | 31810 ft | 467 kts | 286° |
| 2026-05-05 22:55 | 47.59931 | 18.21127 | 31102 ft | 466 kts | 286° |
| 2026-05-05 22:55 | 47.60896 | 18.16539 | 30374 ft | 467 kts | 286° |
| 2026-05-05 22:55 | 47.61866 | 18.11935 | 29641 ft | 470 kts | 286° |
| 2026-05-05 22:56 | 47.62845 | 18.07283 | 28850 ft | 476 kts | 286° |
| 2026-05-05 22:56 | 47.63831 | 18.02585 | 28064 ft | 476 kts | 285° |
| 2026-05-05 22:56 | 47.64777 | 17.98069 | 27317 ft | 470 kts | 285° |
| 2026-05-05 22:56 | 47.65738 | 17.93473 | 26572 ft | 464 kts | 285° |
| 2026-05-05 22:57 | 47.66687 | 17.88920 | 25845 ft | 460 kts | 285° |
| 2026-05-05 22:57 | 47.67623 | 17.84413 | 25139 ft | 455 kts | 285° |
| 2026-05-05 22:57 | 47.68551 | 17.79935 | 24459 ft | 452 kts | 285° |
| 2026-05-05 22:57 | 47.69467 | 17.75501 | 23789 ft | 448 kts | 285° |
| 2026-05-05 22:58 | 47.70376 | 17.71094 | 23065 ft | 445 kts | 285° |
| 2026-05-05 22:58 | 47.71278 | 17.66713 | 22284 ft | 442 kts | 284° |
| 2026-05-05 22:58 | 47.72170 | 17.62370 | 21529 ft | 438 kts | 284° |
| 2026-05-05 22:58 | 47.73056 | 17.58053 | 20796 ft | 435 kts | 284° |
| 2026-05-05 22:59 | 47.73929 | 17.53794 | 20277 ft | 427 kts | 284° |
| 2026-05-05 22:59 | 47.74621 | 17.49565 | 19583 ft | 418 kts | 274° |
| 2026-05-05 22:59 | 47.74518 | 17.45331 | 18904 ft | 404 kts | 260° |
| 2026-05-05 22:59 | 47.74135 | 17.41262 | 18271 ft | 402 kts | 261° |
| 2026-05-05 23:00 | 47.73495 | 17.33035 | 16818 ft | 399 kts | 262° |
| 2026-05-05 23:00 | 47.73202 | 17.28940 | 16092 ft | 398 kts | 262° |
| 2026-05-05 23:00 | 47.72913 | 17.24865 | 15414 ft | 396 kts | 262° |
| 2026-05-05 23:01 | 47.72623 | 17.20802 | 14721 ft | 394 kts | 262° |
| 2026-05-05 23:01 | 47.72341 | 17.16863 | 14022 ft | 374 kts | 262° |
| 2026-05-05 23:01 | 47.72070 | 17.13117 | 13322 ft | 357 kts | 262° |
| 2026-05-05 23:01 | 47.71808 | 17.09527 | 12585 ft | 343 kts | 263° |
| 2026-05-05 23:02 | 47.71925 | 17.06057 | 11856 ft | 335 kts | 282° |
| 2026-05-05 23:02 | 47.72798 | 17.02895 | 11172 ft | 329 kts | 299° |
| 2026-05-05 23:02 | 47.74147 | 17.00199 | 10496 ft | 322 kts | 307° |
| 2026-05-05 23:02 | 47.75525 | 16.97702 | 9839 ft | 315 kts | 307° |
| 2026-05-05 23:03 | 47.76913 | 16.95220 | 9119 ft | 309 kts | 307° |
| 2026-05-05 23:03 | 47.78262 | 16.92779 | 8408 ft | 303 kts | 308° |
| 2026-05-05 23:03 | 47.79578 | 16.90377 | 7706 ft | 296 kts | 308° |
| 2026-05-05 23:03 | 47.80863 | 16.88020 | 7038 ft | 292 kts | 309° |
| 2026-05-05 23:04 | 47.82161 | 16.85631 | 6386 ft | 301 kts | 310° |
| 2026-05-05 23:04 | 47.83486 | 16.83186 | 5700 ft | 302 kts | 310° |
| 2026-05-05 23:04 | 47.84788 | 16.80784 | 4983 ft | 294 kts | 308° |
| 2026-05-05 23:04 | 47.86054 | 16.78439 | 4287 ft | 287 kts | 308° |
| 2026-05-05 23:05 | 47.87291 | 16.76142 | 3590 ft | 282 kts | 308° |
| 2026-05-05 23:05 | 47.88506 | 16.73886 | 3293 ft | 276 kts | 308° |
| 2026-05-05 23:05 | 47.89691 | 16.71685 | 3096 ft | 269 kts | 307° |
| 2026-05-05 23:05 | 47.90840 | 16.69551 | 3002 ft | 257 kts | 307° |
| 2026-05-05 23:06 | 47.91927 | 16.67536 | 2985 ft | 241 kts | 308° |
| 2026-05-05 23:06 | 47.93197 | 16.66085 | 2991 ft | 224 kts | 334° |
| 2026-05-05 23:06 | 47.94599 | 16.65296 | 2973 ft | 208 kts | 336° |
| 2026-05-05 23:06 | 47.95942 | 16.64602 | 3009 ft | 205 kts | 338° |
| 2026-05-05 23:07 | 47.97318 | 16.63996 | 2978 ft | 208 kts | 340° |
| 2026-05-05 23:07 | 47.98723 | 16.63405 | 2680 ft | 210 kts | 341° |
| 2026-05-05 23:07 | 48.00113 | 16.62825 | 2372 ft | 205 kts | 340° |
| 2026-05-05 23:07 | 48.01449 | 16.62264 | 2105 ft | 192 kts | 340° |
| 2026-05-05 23:08 | 48.02683 | 16.61746 | 1874 ft | 176 kts | 339° |
| 2026-05-05 23:08 | 48.03813 | 16.61267 | 1640 ft | 159 kts | 340° |
| 2026-05-05 23:08 | 48.04853 | 16.60827 | 1468 ft | 158 kts | 340° |
| 2026-05-05 23:08 | 48.05940 | 16.60367 | 1235 ft | 162 kts | 341° |
| 2026-05-05 23:09 | 48.07006 | 16.59918 | 1016 ft | 156 kts | 343° |
| 2026-05-05 23:09 | 48.08050 | 16.59490 | 781 ft | 157 kts | 342° |
| 2026-05-05 23:09 | 48.09084 | 16.59048 | 639 ft | 156 kts | 344° |
| 2026-05-05 23:09 | 48.10041 | 16.58640 | 626 ft | 128 kts | 342° |
| 2026-05-05 23:10 | 48.10727 | 16.58347 | 627 ft | 83 kts | 344° |
| 2026-05-05 23:10 | 48.11031 | 16.58095 | 629 ft | 31 kts | 301° |
| 2026-05-05 23:10 | 48.11112 | 16.57858 | 625 ft | 24 kts | 295° |
| 2026-05-05 23:10 | 48.11226 | 16.57718 | 625 ft | 15 kts | 345° |
| 2026-05-05 23:11 | 48.11325 | 16.57677 | 626 ft | 15 kts | 345° |
| 2026-05-05 23:11 | 48.11426 | 16.57635 | 627 ft | 15 kts | 344° |
| 2026-05-05 23:11 | 48.11527 | 16.57592 | 620 ft | 15 kts | 344° |
| 2026-05-05 23:11 | 48.11627 | 16.57548 | 630 ft | 15 kts | 344° |
| 2026-05-05 23:12 | 48.11728 | 16.57505 | 626 ft | 15 kts | 345° |
| 2026-05-05 23:12 | 48.11829 | 16.57464 | 627 ft | 15 kts | 345° |
| 2026-05-05 23:12 | 48.11929 | 16.57421 | 626 ft | 15 kts | 344° |
| 2026-05-05 23:12 | 48.12030 | 16.57377 | 627 ft | 15 kts | 344° |
| 2026-05-05 23:13 | 48.12130 | 16.57334 | 626 ft | 15 kts | 343° |
| 2026-05-05 23:13 | 48.12200 | 16.57224 | 629 ft | 15 kts | 297° |
| 2026-05-05 23:13 | 48.12251 | 16.57082 | 626 ft | 15 kts | 306° |
| 2026-05-05 23:13 | 48.12288 | 16.57070 | 621 ft | 4 kts | 30° |
| 2026-05-05 23:14 | 48.12318 | 16.57094 | 624 ft | 5 kts | 25° |
| 2026-05-05 23:14 | 48.12344 | 16.57114 | 625 ft | 0 kts | 27° |
| 2026-05-05 23:15 | 48.12344 | 16.57113 | 625 ft | 0 kts | 27° |